<?xml version="1.0" encoding="UTF-8" standalone="no" ?>
<gpx xmlns="http://www.topografix.com/GPX/1/1" xmlns:xsi="http://www.w3.org/2001/XMLSchema-instance" xsi:schemaLocation="http://www.topografix.com/GPX/1/1 http://www.topografix.com/GPX/1/1/gpx.xsd" version="1.1" creator="VisuGPX - https://www.visugpx.com">
  <metadata>
    <name>Boucle au Pic de Nore</name>
    <desc><![CDATA[
depuis Cabrespine]]></desc>
  </metadata>
  <trk>
    <name><![CDATA[Boucle Pic de Nore]]></name>
    <desc><![CDATA[depuis Cabrespine]]></desc>
    <extensions>
      <line xmlns="http://www.topografix.com/GPX/gpx_style/0/2">
        <color>0000FF</color>
        <width>4</width>
      </line>
    </extensions>
    <trkseg>
      <trkpt lat="43.36213" lon="2.46077">
        <ele>307.4</ele>
        <time>2021-09-04T06:16:30Z</time>
      </trkpt>
      <trkpt lat="43.36249" lon="2.46096">
        <ele>311.1</ele>
      </trkpt>
      <trkpt lat="43.36253" lon="2.46158">
        <ele>317.3</ele>
        <time>2021-09-04T06:16:30Z</time>
      </trkpt>
      <trkpt lat="43.36229" lon="2.46227">
        <ele>321.9</ele>
      </trkpt>
      <trkpt lat="43.362" lon="2.46267">
        <ele>321.6</ele>
        <time>2021-09-04T06:16:37Z</time>
      </trkpt>
      <trkpt lat="43.3617" lon="2.46302">
        <ele>320.3</ele>
        <time>2021-09-04T06:16:38Z</time>
      </trkpt>
      <trkpt lat="43.36165" lon="2.46334">
        <ele>323.8</ele>
        <time>2021-09-04T06:17:07Z</time>
      </trkpt>
      <trkpt lat="43.36132" lon="2.46387">
        <ele>329.4</ele>
        <time>2021-09-04T06:17:46Z</time>
      </trkpt>
      <trkpt lat="43.36114" lon="2.46428">
        <ele>333</ele>
        <time>2021-09-04T06:18:16Z</time>
      </trkpt>
      <trkpt lat="43.36117" lon="2.46454">
        <ele>337.5</ele>
        <time>2021-09-04T06:18:48Z</time>
      </trkpt>
      <trkpt lat="43.36152" lon="2.46512">
        <ele>353.4</ele>
        <time>2021-09-04T06:21:44Z</time>
      </trkpt>
      <trkpt lat="43.36164" lon="2.46552">
        <ele>362.9</ele>
      </trkpt>
      <trkpt lat="43.36156" lon="2.46602">
        <ele>372.4</ele>
        <time>2021-09-04T06:22:14Z</time>
      </trkpt>
      <trkpt lat="43.36135" lon="2.46625">
        <ele>374.7</ele>
        <time>2021-09-04T06:22:44Z</time>
      </trkpt>
      <trkpt lat="43.36115" lon="2.46643">
        <ele>375</ele>
        <time>2021-09-04T06:23:14Z</time>
      </trkpt>
      <trkpt lat="43.36106" lon="2.46676">
        <ele>379.4</ele>
        <time>2021-09-04T06:23:44Z</time>
      </trkpt>
      <trkpt lat="43.36089" lon="2.4668">
        <ele>375.8</ele>
        <time>2021-09-04T06:24:14Z</time>
      </trkpt>
      <trkpt lat="43.36076" lon="2.46672">
        <ele>371.6</ele>
        <time>2021-09-04T06:24:44Z</time>
      </trkpt>
      <trkpt lat="43.3608" lon="2.46706">
        <ele>376.2</ele>
        <time>2021-09-04T06:25:14Z</time>
      </trkpt>
      <trkpt lat="43.3608" lon="2.46726">
        <ele>378.3</ele>
        <time>2021-09-04T06:25:44Z</time>
      </trkpt>
      <trkpt lat="43.36089" lon="2.46762">
        <ele>386.8</ele>
        <time>2021-09-04T06:26:14Z</time>
      </trkpt>
      <trkpt lat="43.36083" lon="2.46787">
        <ele>389.4</ele>
        <time>2021-09-04T06:26:30Z</time>
      </trkpt>
      <trkpt lat="43.36083" lon="2.46789">
        <ele>389.8</ele>
        <time>2021-09-04T06:26:38Z</time>
      </trkpt>
      <trkpt lat="43.36083" lon="2.46796">
        <ele>391.2</ele>
        <time>2021-09-04T06:26:44Z</time>
      </trkpt>
      <trkpt lat="43.36077" lon="2.46825">
        <ele>394.4</ele>
        <time>2021-09-04T06:27:14Z</time>
      </trkpt>
      <trkpt lat="43.36064" lon="2.46867">
        <ele>399.8</ele>
        <time>2021-09-04T06:27:44Z</time>
      </trkpt>
      <trkpt lat="43.36047" lon="2.46904">
        <ele>403.7</ele>
        <time>2021-09-04T06:28:14Z</time>
      </trkpt>
      <trkpt lat="43.36027" lon="2.46924">
        <ele>401</ele>
        <time>2021-09-04T06:28:44Z</time>
      </trkpt>
      <trkpt lat="43.36016" lon="2.46953">
        <ele>402.4</ele>
        <time>2021-09-04T06:29:14Z</time>
      </trkpt>
      <trkpt lat="43.36025" lon="2.46977">
        <ele>410</ele>
        <time>2021-09-04T06:29:44Z</time>
      </trkpt>
      <trkpt lat="43.36025" lon="2.46979">
        <ele>410.3</ele>
        <time>2021-09-04T06:30:44Z</time>
      </trkpt>
      <trkpt lat="43.36026" lon="2.4698">
        <ele>410.8</ele>
        <time>2021-09-04T06:31:14Z</time>
      </trkpt>
      <trkpt lat="43.36038" lon="2.47003">
        <ele>418.2</ele>
        <time>2021-09-04T06:31:44Z</time>
      </trkpt>
      <trkpt lat="43.36058" lon="2.47029">
        <ele>424.9</ele>
        <time>2021-09-04T06:32:14Z</time>
      </trkpt>
      <trkpt lat="43.36076" lon="2.47038">
        <ele>428.4</ele>
        <time>2021-09-04T06:32:44Z</time>
      </trkpt>
      <trkpt lat="43.36117" lon="2.47063">
        <ele>437.9</ele>
        <time>2021-09-04T06:33:28Z</time>
      </trkpt>
      <trkpt lat="43.36136" lon="2.47097">
        <ele>442.6</ele>
        <time>2021-09-04T06:33:58Z</time>
      </trkpt>
      <trkpt lat="43.36156" lon="2.47115">
        <ele>448.5</ele>
        <time>2021-09-04T06:34:28Z</time>
      </trkpt>
      <trkpt lat="43.36179" lon="2.47137">
        <ele>453.8</ele>
        <time>2021-09-04T06:34:58Z</time>
      </trkpt>
      <trkpt lat="43.36203" lon="2.47153">
        <ele>457.7</ele>
        <time>2021-09-04T06:35:28Z</time>
      </trkpt>
      <trkpt lat="43.36211" lon="2.47164">
        <ele>458.8</ele>
        <time>2021-09-04T06:35:58Z</time>
      </trkpt>
      <trkpt lat="43.3622" lon="2.47171">
        <ele>461</ele>
        <time>2021-09-04T06:36:28Z</time>
      </trkpt>
      <trkpt lat="43.36231" lon="2.47173">
        <ele>462.7</ele>
        <time>2021-09-04T06:36:30Z</time>
      </trkpt>
      <trkpt lat="43.36231" lon="2.47174">
        <ele>462.9</ele>
        <time>2021-09-04T06:36:38Z</time>
      </trkpt>
      <trkpt lat="43.36249" lon="2.47177">
        <ele>465.4</ele>
        <time>2021-09-04T06:36:58Z</time>
      </trkpt>
      <trkpt lat="43.36258" lon="2.47163">
        <ele>466.1</ele>
        <time>2021-09-04T06:37:28Z</time>
      </trkpt>
      <trkpt lat="43.36273" lon="2.47108">
        <ele>474.7</ele>
        <time>2021-09-04T06:37:58Z</time>
      </trkpt>
      <trkpt lat="43.36255" lon="2.4707">
        <ele>472.3</ele>
      </trkpt>
      <trkpt lat="43.3623" lon="2.47044">
        <ele>470.2</ele>
        <time>2021-09-04T06:39:18Z</time>
      </trkpt>
      <trkpt lat="43.36223" lon="2.47003">
        <ele>475.7</ele>
        <time>2021-09-04T06:39:48Z</time>
      </trkpt>
      <trkpt lat="43.36255" lon="2.46977">
        <ele>482.2</ele>
        <time>2021-09-04T06:40:46Z</time>
      </trkpt>
      <trkpt lat="43.36276" lon="2.46957">
        <ele>486.6</ele>
        <time>2021-09-04T06:41:16Z</time>
      </trkpt>
      <trkpt lat="43.36298" lon="2.46964">
        <ele>493.7</ele>
        <time>2021-09-04T06:41:46Z</time>
      </trkpt>
      <trkpt lat="43.36317" lon="2.46963">
        <ele>499.3</ele>
        <time>2021-09-04T06:42:16Z</time>
      </trkpt>
      <trkpt lat="43.36331" lon="2.4698">
        <ele>503.9</ele>
        <time>2021-09-04T06:42:46Z</time>
      </trkpt>
      <trkpt lat="43.36346" lon="2.47">
        <ele>510</ele>
        <time>2021-09-04T06:43:16Z</time>
      </trkpt>
      <trkpt lat="43.36365" lon="2.47022">
        <ele>515.6</ele>
        <time>2021-09-04T06:43:48Z</time>
      </trkpt>
      <trkpt lat="43.36383" lon="2.47046">
        <ele>520.5</ele>
        <time>2021-09-04T06:44:18Z</time>
      </trkpt>
      <trkpt lat="43.36397" lon="2.47073">
        <ele>523.4</ele>
        <time>2021-09-04T06:44:48Z</time>
      </trkpt>
      <trkpt lat="43.36411" lon="2.47102">
        <ele>527.3</ele>
        <time>2021-09-04T06:45:18Z</time>
      </trkpt>
      <trkpt lat="43.36425" lon="2.47123">
        <ele>533.4</ele>
        <time>2021-09-04T06:45:48Z</time>
      </trkpt>
      <trkpt lat="43.3644" lon="2.47145">
        <ele>540.4</ele>
        <time>2021-09-04T06:46:18Z</time>
      </trkpt>
      <trkpt lat="43.36443" lon="2.47156">
        <ele>541.6</ele>
        <time>2021-09-04T06:46:30Z</time>
      </trkpt>
      <trkpt lat="43.36444" lon="2.47157">
        <ele>542.1</ele>
        <time>2021-09-04T06:46:39Z</time>
      </trkpt>
      <trkpt lat="43.36448" lon="2.47169">
        <ele>544</ele>
        <time>2021-09-04T06:46:48Z</time>
      </trkpt>
      <trkpt lat="43.36458" lon="2.47199">
        <ele>551.7</ele>
        <time>2021-09-04T06:47:18Z</time>
      </trkpt>
      <trkpt lat="43.36456" lon="2.4723">
        <ele>553.6</ele>
        <time>2021-09-04T06:47:48Z</time>
      </trkpt>
      <trkpt lat="43.36452" lon="2.47265">
        <ele>556.3</ele>
        <time>2021-09-04T06:48:18Z</time>
      </trkpt>
      <trkpt lat="43.36445" lon="2.473">
        <ele>559.7</ele>
        <time>2021-09-04T06:48:48Z</time>
      </trkpt>
      <trkpt lat="43.36454" lon="2.47303">
        <ele>564.4</ele>
        <time>2021-09-04T06:49:18Z</time>
      </trkpt>
      <trkpt lat="43.36445" lon="2.47334">
        <ele>566</ele>
        <time>2021-09-04T06:49:48Z</time>
      </trkpt>
      <trkpt lat="43.36441" lon="2.47368">
        <ele>569.6</ele>
        <time>2021-09-04T06:50:18Z</time>
      </trkpt>
      <trkpt lat="43.36447" lon="2.47388">
        <ele>575.3</ele>
        <time>2021-09-04T06:50:48Z</time>
      </trkpt>
      <trkpt lat="43.36442" lon="2.47388">
        <ele>573.1</ele>
        <time>2021-09-04T06:51:45Z</time>
      </trkpt>
      <trkpt lat="43.36444" lon="2.47394">
        <ele>574.9</ele>
        <time>2021-09-04T06:52:15Z</time>
      </trkpt>
      <trkpt lat="43.36441" lon="2.47437">
        <ele>581.3</ele>
        <time>2021-09-04T06:52:47Z</time>
      </trkpt>
      <trkpt lat="43.3644" lon="2.47467">
        <ele>587</ele>
        <time>2021-09-04T06:53:17Z</time>
      </trkpt>
      <trkpt lat="43.36439" lon="2.47491">
        <ele>591.7</ele>
        <time>2021-09-04T06:53:48Z</time>
      </trkpt>
      <trkpt lat="43.36421" lon="2.4751">
        <ele>592.5</ele>
        <time>2021-09-04T06:54:18Z</time>
      </trkpt>
      <trkpt lat="43.3644" lon="2.47524">
        <ele>598.5</ele>
        <time>2021-09-04T06:54:48Z</time>
      </trkpt>
      <trkpt lat="43.36465" lon="2.47531">
        <ele>602.5</ele>
        <time>2021-09-04T06:55:18Z</time>
      </trkpt>
      <trkpt lat="43.36491" lon="2.47535">
        <ele>605.2</ele>
        <time>2021-09-04T06:55:48Z</time>
      </trkpt>
      <trkpt lat="43.36495" lon="2.47557">
        <ele>605.9</ele>
        <time>2021-09-04T06:56:18Z</time>
      </trkpt>
      <trkpt lat="43.36496" lon="2.47555">
        <ele>605.9</ele>
        <time>2021-09-04T06:56:30Z</time>
      </trkpt>
      <trkpt lat="43.36496" lon="2.47556">
        <ele>605.9</ele>
        <time>2021-09-04T06:56:40Z</time>
      </trkpt>
      <trkpt lat="43.36496" lon="2.47557">
        <ele>605.9</ele>
        <time>2021-09-04T06:56:48Z</time>
      </trkpt>
      <trkpt lat="43.36497" lon="2.47556">
        <ele>605.9</ele>
        <time>2021-09-04T06:57:21Z</time>
      </trkpt>
      <trkpt lat="43.36498" lon="2.47555">
        <ele>606</ele>
        <time>2021-09-04T06:57:51Z</time>
      </trkpt>
      <trkpt lat="43.36512" lon="2.47578">
        <ele>606.4</ele>
        <time>2021-09-04T06:58:21Z</time>
      </trkpt>
      <trkpt lat="43.36543" lon="2.47585">
        <ele>606.9</ele>
        <time>2021-09-04T06:58:51Z</time>
      </trkpt>
      <trkpt lat="43.3658" lon="2.47588">
        <ele>607.4</ele>
        <time>2021-09-04T06:59:21Z</time>
      </trkpt>
      <trkpt lat="43.36618" lon="2.47589">
        <ele>608.7</ele>
        <time>2021-09-04T06:59:51Z</time>
      </trkpt>
      <trkpt lat="43.36656" lon="2.47587">
        <ele>610.3</ele>
        <time>2021-09-04T07:00:21Z</time>
      </trkpt>
      <trkpt lat="43.36685" lon="2.47582">
        <ele>612.2</ele>
        <time>2021-09-04T07:00:51Z</time>
      </trkpt>
      <trkpt lat="43.36714" lon="2.47572">
        <ele>615.5</ele>
        <time>2021-09-04T07:01:21Z</time>
      </trkpt>
      <trkpt lat="43.36748" lon="2.47556">
        <ele>619.9</ele>
        <time>2021-09-04T07:01:51Z</time>
      </trkpt>
      <trkpt lat="43.36803" lon="2.47506">
        <ele>628.9</ele>
        <time>2021-09-04T07:02:50Z</time>
      </trkpt>
      <trkpt lat="43.36827" lon="2.47493">
        <ele>628.7</ele>
        <time>2021-09-04T07:03:20Z</time>
      </trkpt>
      <trkpt lat="43.36825" lon="2.47463">
        <ele>627.1</ele>
        <time>2021-09-04T07:03:50Z</time>
      </trkpt>
      <trkpt lat="43.36814" lon="2.47437">
        <ele>627.3</ele>
        <time>2021-09-04T07:04:20Z</time>
      </trkpt>
      <trkpt lat="43.36817" lon="2.47441">
        <ele>627</ele>
        <time>2021-09-04T07:04:50Z</time>
      </trkpt>
      <trkpt lat="43.36842" lon="2.47459">
        <ele>625.8</ele>
        <time>2021-09-04T07:05:20Z</time>
      </trkpt>
      <trkpt lat="43.36867" lon="2.47489">
        <ele>628.8</ele>
        <time>2021-09-04T07:05:50Z</time>
      </trkpt>
      <trkpt lat="43.36882" lon="2.47529">
        <ele>632.8</ele>
        <time>2021-09-04T07:06:20Z</time>
      </trkpt>
      <trkpt lat="43.36892" lon="2.47551">
        <ele>635.7</ele>
        <time>2021-09-04T07:06:30Z</time>
      </trkpt>
      <trkpt lat="43.36892" lon="2.47552">
        <ele>635.8</ele>
        <time>2021-09-04T07:06:40Z</time>
      </trkpt>
      <trkpt lat="43.369" lon="2.47564">
        <ele>638</ele>
        <time>2021-09-04T07:06:50Z</time>
      </trkpt>
      <trkpt lat="43.36908" lon="2.47604">
        <ele>642.4</ele>
        <time>2021-09-04T07:07:20Z</time>
      </trkpt>
      <trkpt lat="43.36944" lon="2.4761">
        <ele>647.2</ele>
        <time>2021-09-04T07:07:50Z</time>
      </trkpt>
      <trkpt lat="43.36969" lon="2.47598">
        <ele>649.1</ele>
        <time>2021-09-04T07:08:24Z</time>
      </trkpt>
      <trkpt lat="43.37011" lon="2.47583">
        <ele>651.4</ele>
        <time>2021-09-04T07:08:57Z</time>
      </trkpt>
      <trkpt lat="43.3703" lon="2.47539">
        <ele>647.6</ele>
        <time>2021-09-04T07:09:46Z</time>
      </trkpt>
      <trkpt lat="43.37043" lon="2.47492">
        <ele>642.7</ele>
        <time>2021-09-04T07:10:16Z</time>
      </trkpt>
      <trkpt lat="43.37057" lon="2.47458">
        <ele>639.8</ele>
        <time>2021-09-04T07:10:46Z</time>
      </trkpt>
      <trkpt lat="43.3705" lon="2.4743">
        <ele>637.2</ele>
        <time>2021-09-04T07:11:17Z</time>
      </trkpt>
      <trkpt lat="43.37056" lon="2.47408">
        <ele>636.3</ele>
        <time>2021-09-04T07:11:47Z</time>
      </trkpt>
      <trkpt lat="43.37063" lon="2.47386">
        <ele>636.5</ele>
        <time>2021-09-04T07:12:17Z</time>
      </trkpt>
      <trkpt lat="43.37068" lon="2.47345">
        <ele>636.6</ele>
        <time>2021-09-04T07:12:47Z</time>
      </trkpt>
      <trkpt lat="43.3707" lon="2.47304">
        <ele>636.6</ele>
        <time>2021-09-04T07:13:17Z</time>
      </trkpt>
      <trkpt lat="43.37093" lon="2.47314">
        <ele>635.4</ele>
        <time>2021-09-04T07:13:47Z</time>
      </trkpt>
      <trkpt lat="43.37106" lon="2.47356">
        <ele>631.7</ele>
        <time>2021-09-04T07:14:17Z</time>
      </trkpt>
      <trkpt lat="43.37119" lon="2.47403">
        <ele>630.5</ele>
        <time>2021-09-04T07:14:47Z</time>
      </trkpt>
      <trkpt lat="43.3713" lon="2.47453">
        <ele>633.7</ele>
        <time>2021-09-04T07:15:17Z</time>
      </trkpt>
      <trkpt lat="43.3716" lon="2.47439">
        <ele>627.1</ele>
        <time>2021-09-04T07:15:47Z</time>
      </trkpt>
      <trkpt lat="43.37184" lon="2.474">
        <ele>619.4</ele>
        <time>2021-09-04T07:16:17Z</time>
      </trkpt>
      <trkpt lat="43.37208" lon="2.47388">
        <ele>615.6</ele>
        <time>2021-09-04T07:16:30Z</time>
      </trkpt>
      <trkpt lat="43.37208" lon="2.47388">
        <ele>615.6</ele>
        <time>2021-09-04T07:16:40Z</time>
      </trkpt>
      <trkpt lat="43.37289" lon="2.47377">
        <ele>612.8</ele>
        <time>2021-09-04T07:17:49Z</time>
      </trkpt>
      <trkpt lat="43.3735" lon="2.47368">
        <ele>615.7</ele>
        <time>2021-09-04T07:18:40Z</time>
      </trkpt>
      <trkpt lat="43.37388" lon="2.47351">
        <ele>613.2</ele>
        <time>2021-09-04T07:19:10Z</time>
      </trkpt>
      <trkpt lat="43.37427" lon="2.47334">
        <ele>610.3</ele>
        <time>2021-09-04T07:19:42Z</time>
      </trkpt>
      <trkpt lat="43.37462" lon="2.47327">
        <ele>610.5</ele>
        <time>2021-09-04T07:20:12Z</time>
      </trkpt>
      <trkpt lat="43.37501" lon="2.47309">
        <ele>606.4</ele>
        <time>2021-09-04T07:20:45Z</time>
      </trkpt>
      <trkpt lat="43.37536" lon="2.47289">
        <ele>605.4</ele>
        <time>2021-09-04T07:21:15Z</time>
      </trkpt>
      <trkpt lat="43.3757" lon="2.47265">
        <ele>603.5</ele>
        <time>2021-09-04T07:21:45Z</time>
      </trkpt>
      <trkpt lat="43.37596" lon="2.47228">
        <ele>594</ele>
        <time>2021-09-04T07:22:15Z</time>
      </trkpt>
      <trkpt lat="43.37639" lon="2.47216">
        <ele>593.7</ele>
        <time>2021-09-04T07:22:46Z</time>
      </trkpt>
      <trkpt lat="43.37676" lon="2.47233">
        <ele>600.7</ele>
        <time>2021-09-04T07:23:16Z</time>
      </trkpt>
      <trkpt lat="43.37713" lon="2.47249">
        <ele>599.1</ele>
        <time>2021-09-04T07:23:46Z</time>
      </trkpt>
      <trkpt lat="43.37749" lon="2.47258">
        <ele>595.6</ele>
        <time>2021-09-04T07:24:16Z</time>
      </trkpt>
      <trkpt lat="43.37781" lon="2.47251">
        <ele>587.9</ele>
        <time>2021-09-04T07:24:52Z</time>
      </trkpt>
      <trkpt lat="43.37823" lon="2.47221">
        <ele>571.4</ele>
        <time>2021-09-04T07:25:41Z</time>
      </trkpt>
      <trkpt lat="43.37861" lon="2.47196">
        <ele>554.1</ele>
        <time>2021-09-04T07:26:15Z</time>
      </trkpt>
      <trkpt lat="43.37874" lon="2.47218">
        <ele>555.5</ele>
        <time>2021-09-04T07:26:30Z</time>
      </trkpt>
      <trkpt lat="43.37875" lon="2.47219">
        <ele>555.4</ele>
        <time>2021-09-04T07:26:41Z</time>
      </trkpt>
      <trkpt lat="43.37878" lon="2.47226">
        <ele>556</ele>
        <time>2021-09-04T07:26:45Z</time>
      </trkpt>
      <trkpt lat="43.37885" lon="2.47265">
        <ele>561</ele>
        <time>2021-09-04T07:27:22Z</time>
      </trkpt>
      <trkpt lat="43.37882" lon="2.47271">
        <ele>563.4</ele>
        <time>2021-09-04T07:27:53Z</time>
      </trkpt>
      <trkpt lat="43.37892" lon="2.47292">
        <ele>562.6</ele>
        <time>2021-09-04T07:28:41Z</time>
      </trkpt>
      <trkpt lat="43.37919" lon="2.47324">
        <ele>554.2</ele>
        <time>2021-09-04T07:29:11Z</time>
      </trkpt>
      <trkpt lat="43.37929" lon="2.47358">
        <ele>554.1</ele>
        <time>2021-09-04T07:29:44Z</time>
      </trkpt>
      <trkpt lat="43.3794" lon="2.47392">
        <ele>554.2</ele>
        <time>2021-09-04T07:30:16Z</time>
      </trkpt>
      <trkpt lat="43.37978" lon="2.47419">
        <ele>541.9</ele>
        <time>2021-09-04T07:30:46Z</time>
      </trkpt>
      <trkpt lat="43.37976" lon="2.47415">
        <ele>541.8</ele>
        <time>2021-09-04T07:31:16Z</time>
      </trkpt>
      <trkpt lat="43.37996" lon="2.47434">
        <ele>537.3</ele>
        <time>2021-09-04T07:31:49Z</time>
      </trkpt>
      <trkpt lat="43.38023" lon="2.47471">
        <ele>532.4</ele>
        <time>2021-09-04T07:32:48Z</time>
      </trkpt>
      <trkpt lat="43.38025" lon="2.47484">
        <ele>534.5</ele>
        <time>2021-09-04T07:33:19Z</time>
      </trkpt>
      <trkpt lat="43.38072" lon="2.47574">
        <ele>522.6</ele>
        <time>2021-09-04T07:34:13Z</time>
      </trkpt>
      <trkpt lat="43.38086" lon="2.47623">
        <ele>519.1</ele>
        <time>2021-09-04T07:34:43Z</time>
      </trkpt>
      <trkpt lat="43.38092" lon="2.47653">
        <ele>518.3</ele>
        <time>2021-09-04T07:35:13Z</time>
      </trkpt>
      <trkpt lat="43.38102" lon="2.47695">
        <ele>513.2</ele>
        <time>2021-09-04T07:35:43Z</time>
      </trkpt>
      <trkpt lat="43.38116" lon="2.47742">
        <ele>504.8</ele>
        <time>2021-09-04T07:36:13Z</time>
      </trkpt>
      <trkpt lat="43.38114" lon="2.47785">
        <ele>501.1</ele>
        <time>2021-09-04T07:36:30Z</time>
      </trkpt>
      <trkpt lat="43.38114" lon="2.47785">
        <ele>501.1</ele>
        <time>2021-09-04T07:36:41Z</time>
      </trkpt>
      <trkpt lat="43.38114" lon="2.47788">
        <ele>500.6</ele>
        <time>2021-09-04T07:36:43Z</time>
      </trkpt>
      <trkpt lat="43.38094" lon="2.47833">
        <ele>503.9</ele>
        <time>2021-09-04T07:37:13Z</time>
      </trkpt>
      <trkpt lat="43.38068" lon="2.4787">
        <ele>512.7</ele>
        <time>2021-09-04T07:37:43Z</time>
      </trkpt>
      <trkpt lat="43.38081" lon="2.47914">
        <ele>501.5</ele>
        <time>2021-09-04T07:38:13Z</time>
      </trkpt>
      <trkpt lat="43.38083" lon="2.47965">
        <ele>502.5</ele>
        <time>2021-09-04T07:38:43Z</time>
      </trkpt>
      <trkpt lat="43.38086" lon="2.48005">
        <ele>505</ele>
      </trkpt>
      <trkpt lat="43.3814" lon="2.47984">
        <ele>495.4</ele>
        <time>2021-09-04T07:40:11Z</time>
      </trkpt>
      <trkpt lat="43.38173" lon="2.47978">
        <ele>488.2</ele>
      </trkpt>
      <trkpt lat="43.38195" lon="2.48014">
        <ele>490.9</ele>
        <time>2021-09-04T07:41:02Z</time>
      </trkpt>
      <trkpt lat="43.3823" lon="2.48058">
        <ele>494.2</ele>
        <time>2021-09-04T07:41:35Z</time>
      </trkpt>
      <trkpt lat="43.38259" lon="2.48079">
        <ele>492.2</ele>
        <time>2021-09-04T07:42:05Z</time>
      </trkpt>
      <trkpt lat="43.38318" lon="2.4813">
        <ele>489.6</ele>
        <time>2021-09-04T07:43:09Z</time>
      </trkpt>
      <trkpt lat="43.38351" lon="2.48144">
        <ele>485</ele>
        <time>2021-09-04T07:43:39Z</time>
      </trkpt>
      <trkpt lat="43.38393" lon="2.48154">
        <ele>476</ele>
        <time>2021-09-04T07:44:09Z</time>
      </trkpt>
      <trkpt lat="43.38427" lon="2.48165">
        <ele>468.7</ele>
        <time>2021-09-04T07:44:39Z</time>
      </trkpt>
      <trkpt lat="43.38445" lon="2.48192">
        <ele>473.2</ele>
        <time>2021-09-04T07:45:09Z</time>
      </trkpt>
      <trkpt lat="43.38482" lon="2.48208">
        <ele>465.9</ele>
        <time>2021-09-04T07:45:39Z</time>
      </trkpt>
      <trkpt lat="43.38497" lon="2.48215">
        <ele>462.5</ele>
        <time>2021-09-04T07:46:09Z</time>
      </trkpt>
      <trkpt lat="43.38528" lon="2.48252">
        <ele>467.8</ele>
        <time>2021-09-04T07:46:30Z</time>
      </trkpt>
      <trkpt lat="43.38528" lon="2.48253">
        <ele>468</ele>
        <time>2021-09-04T07:46:44Z</time>
      </trkpt>
      <trkpt lat="43.38528" lon="2.48253">
        <ele>468</ele>
        <time>2021-09-04T07:46:44Z</time>
      </trkpt>
      <trkpt lat="43.38572" lon="2.48316">
        <ele>471.1</ele>
        <time>2021-09-04T07:47:31Z</time>
      </trkpt>
      <trkpt lat="43.38615" lon="2.4837">
        <ele>480.9</ele>
        <time>2021-09-04T07:48:06Z</time>
      </trkpt>
      <trkpt lat="43.38616" lon="2.48394">
        <ele>482.6</ele>
        <time>2021-09-04T07:48:37Z</time>
      </trkpt>
      <trkpt lat="43.38622" lon="2.48403">
        <ele>484.3</ele>
        <time>2021-09-04T07:49:10Z</time>
      </trkpt>
      <trkpt lat="43.38625" lon="2.48419">
        <ele>485.7</ele>
        <time>2021-09-04T07:49:40Z</time>
      </trkpt>
      <trkpt lat="43.3863" lon="2.4844">
        <ele>487.8</ele>
        <time>2021-09-04T07:50:43Z</time>
      </trkpt>
      <trkpt lat="43.3863" lon="2.4845">
        <ele>488.6</ele>
        <time>2021-09-04T07:51:36Z</time>
      </trkpt>
      <trkpt lat="43.38631" lon="2.48453">
        <ele>488.9</ele>
        <time>2021-09-04T07:52:07Z</time>
      </trkpt>
      <trkpt lat="43.38634" lon="2.48458">
        <ele>489.5</ele>
        <time>2021-09-04T07:52:37Z</time>
      </trkpt>
      <trkpt lat="43.3864" lon="2.48458">
        <ele>490.3</ele>
        <time>2021-09-04T07:53:13Z</time>
      </trkpt>
      <trkpt lat="43.38645" lon="2.48451">
        <ele>490.6</ele>
        <time>2021-09-04T07:54:05Z</time>
      </trkpt>
      <trkpt lat="43.38635" lon="2.48459">
        <ele>489.7</ele>
        <time>2021-09-04T07:54:35Z</time>
      </trkpt>
      <trkpt lat="43.38628" lon="2.48432">
        <ele>487.1</ele>
        <time>2021-09-04T07:55:07Z</time>
      </trkpt>
      <trkpt lat="43.38624" lon="2.48413">
        <ele>485.2</ele>
        <time>2021-09-04T07:55:37Z</time>
      </trkpt>
      <trkpt lat="43.38623" lon="2.48387">
        <ele>483.6</ele>
        <time>2021-09-04T07:56:08Z</time>
      </trkpt>
      <trkpt lat="43.38622" lon="2.48385">
        <ele>483.4</ele>
        <time>2021-09-04T07:56:40Z</time>
      </trkpt>
      <trkpt lat="43.38622" lon="2.48385">
        <ele>483.3</ele>
      </trkpt>
      <trkpt lat="43.3862" lon="2.48384">
        <ele>482.8</ele>
        <time>2021-09-04T07:56:45Z</time>
      </trkpt>
      <trkpt lat="43.38619" lon="2.48386">
        <ele>482.7</ele>
        <time>2021-09-04T07:56:45Z</time>
      </trkpt>
      <trkpt lat="43.38615" lon="2.48393">
        <ele>482.3</ele>
        <time>2021-09-04T07:57:10Z</time>
      </trkpt>
      <trkpt lat="43.38628" lon="2.48355">
        <ele>483.3</ele>
        <time>2021-09-04T07:57:40Z</time>
      </trkpt>
      <trkpt lat="43.38623" lon="2.48308">
        <ele>479.1</ele>
        <time>2021-09-04T07:58:10Z</time>
      </trkpt>
      <trkpt lat="43.38604" lon="2.48263">
        <ele>468.9</ele>
        <time>2021-09-04T07:58:40Z</time>
      </trkpt>
      <trkpt lat="43.38616" lon="2.48236">
        <ele>472.8</ele>
        <time>2021-09-04T07:59:11Z</time>
      </trkpt>
      <trkpt lat="43.3859" lon="2.48192">
        <ele>466.5</ele>
        <time>2021-09-04T08:00:02Z</time>
      </trkpt>
      <trkpt lat="43.38591" lon="2.4811">
        <ele>478.2</ele>
        <time>2021-09-04T08:00:34Z</time>
      </trkpt>
      <trkpt lat="43.38582" lon="2.48053">
        <ele>486.6</ele>
        <time>2021-09-04T08:01:06Z</time>
      </trkpt>
      <trkpt lat="43.38547" lon="2.48045">
        <ele>479.7</ele>
        <time>2021-09-04T08:01:36Z</time>
      </trkpt>
      <trkpt lat="43.38519" lon="2.48012">
        <ele>482.4</ele>
        <time>2021-09-04T08:02:06Z</time>
      </trkpt>
      <trkpt lat="43.38489" lon="2.47972">
        <ele>488.1</ele>
        <time>2021-09-04T08:02:38Z</time>
      </trkpt>
      <trkpt lat="43.38461" lon="2.47942">
        <ele>491.2</ele>
        <time>2021-09-04T08:03:08Z</time>
      </trkpt>
      <trkpt lat="43.38421" lon="2.47915">
        <ele>491.4</ele>
        <time>2021-09-04T08:03:39Z</time>
      </trkpt>
      <trkpt lat="43.3839" lon="2.47889">
        <ele>485.1</ele>
        <time>2021-09-04T08:04:09Z</time>
      </trkpt>
      <trkpt lat="43.38385" lon="2.47841">
        <ele>492.9</ele>
        <time>2021-09-04T08:04:41Z</time>
      </trkpt>
      <trkpt lat="43.38378" lon="2.47783">
        <ele>496.5</ele>
        <time>2021-09-04T08:05:11Z</time>
      </trkpt>
      <trkpt lat="43.38378" lon="2.4773">
        <ele>501.2</ele>
        <time>2021-09-04T08:05:41Z</time>
      </trkpt>
      <trkpt lat="43.38383" lon="2.47611">
        <ele>505.6</ele>
        <time>2021-09-04T08:06:45Z</time>
      </trkpt>
      <trkpt lat="43.38383" lon="2.47612">
        <ele>505.6</ele>
        <time>2021-09-04T08:06:47Z</time>
      </trkpt>
      <trkpt lat="43.38383" lon="2.47612">
        <ele>505.6</ele>
        <time>2021-09-04T08:06:48Z</time>
      </trkpt>
      <trkpt lat="43.38396" lon="2.47561">
        <ele>509.8</ele>
        <time>2021-09-04T08:07:17Z</time>
      </trkpt>
      <trkpt lat="43.38414" lon="2.47502">
        <ele>514.7</ele>
        <time>2021-09-04T08:07:50Z</time>
      </trkpt>
      <trkpt lat="43.38418" lon="2.47446">
        <ele>515.3</ele>
        <time>2021-09-04T08:08:21Z</time>
      </trkpt>
      <trkpt lat="43.38425" lon="2.4741">
        <ele>516.7</ele>
        <time>2021-09-04T08:08:51Z</time>
      </trkpt>
      <trkpt lat="43.3843" lon="2.47444">
        <ele>520.7</ele>
        <time>2021-09-04T08:09:21Z</time>
      </trkpt>
      <trkpt lat="43.38428" lon="2.47475">
        <ele>521.1</ele>
        <time>2021-09-04T08:10:27Z</time>
      </trkpt>
      <trkpt lat="43.38421" lon="2.47552">
        <ele>522.7</ele>
        <time>2021-09-04T08:11:14Z</time>
      </trkpt>
      <trkpt lat="43.38425" lon="2.47616">
        <ele>529</ele>
        <time>2021-09-04T08:11:47Z</time>
      </trkpt>
      <trkpt lat="43.38427" lon="2.4767">
        <ele>532.3</ele>
        <time>2021-09-04T08:12:17Z</time>
      </trkpt>
      <trkpt lat="43.38436" lon="2.47727">
        <ele>532.8</ele>
        <time>2021-09-04T08:12:47Z</time>
      </trkpt>
      <trkpt lat="43.38439" lon="2.47752">
        <ele>532</ele>
        <time>2021-09-04T08:13:17Z</time>
      </trkpt>
      <trkpt lat="43.38446" lon="2.4775">
        <ele>535.3</ele>
        <time>2021-09-04T08:13:47Z</time>
      </trkpt>
      <trkpt lat="43.38443" lon="2.47689">
        <ele>539.1</ele>
        <time>2021-09-04T08:14:20Z</time>
      </trkpt>
      <trkpt lat="43.38448" lon="2.47638">
        <ele>542.2</ele>
        <time>2021-09-04T08:14:50Z</time>
      </trkpt>
      <trkpt lat="43.38453" lon="2.47585">
        <ele>542.3</ele>
        <time>2021-09-04T08:15:20Z</time>
      </trkpt>
      <trkpt lat="43.38464" lon="2.47526">
        <ele>543.6</ele>
        <time>2021-09-04T08:15:53Z</time>
      </trkpt>
      <trkpt lat="43.38466" lon="2.4749">
        <ele>541.5</ele>
        <time>2021-09-04T08:16:23Z</time>
      </trkpt>
      <trkpt lat="43.38477" lon="2.47452">
        <ele>542.7</ele>
        <time>2021-09-04T08:16:45Z</time>
      </trkpt>
      <trkpt lat="43.38485" lon="2.47417">
        <ele>541.8</ele>
        <time>2021-09-04T08:16:49Z</time>
      </trkpt>
      <trkpt lat="43.38505" lon="2.47385">
        <ele>537.3</ele>
        <time>2021-09-04T08:17:14Z</time>
      </trkpt>
      <trkpt lat="43.38544" lon="2.47379">
        <ele>538.6</ele>
        <time>2021-09-04T08:17:47Z</time>
      </trkpt>
      <trkpt lat="43.38585" lon="2.47381">
        <ele>542.9</ele>
        <time>2021-09-04T08:18:17Z</time>
      </trkpt>
      <trkpt lat="43.38626" lon="2.47394">
        <ele>549.1</ele>
        <time>2021-09-04T08:18:49Z</time>
      </trkpt>
      <trkpt lat="43.38668" lon="2.47415">
        <ele>560.3</ele>
        <time>2021-09-04T08:19:20Z</time>
      </trkpt>
      <trkpt lat="43.38712" lon="2.47386">
        <ele>551.7</ele>
        <time>2021-09-04T08:19:53Z</time>
      </trkpt>
      <trkpt lat="43.38748" lon="2.47371">
        <ele>549.7</ele>
        <time>2021-09-04T08:20:23Z</time>
      </trkpt>
      <trkpt lat="43.38833" lon="2.47319">
        <ele>550.2</ele>
        <time>2021-09-04T08:21:30Z</time>
      </trkpt>
      <trkpt lat="43.3888" lon="2.47306">
        <ele>541.8</ele>
        <time>2021-09-04T08:22:01Z</time>
      </trkpt>
      <trkpt lat="43.38919" lon="2.47314">
        <ele>543.9</ele>
        <time>2021-09-04T08:22:31Z</time>
      </trkpt>
      <trkpt lat="43.38952" lon="2.47337">
        <ele>544.8</ele>
        <time>2021-09-04T08:23:01Z</time>
      </trkpt>
      <trkpt lat="43.3899" lon="2.47379">
        <ele>547.5</ele>
        <time>2021-09-04T08:23:31Z</time>
      </trkpt>
      <trkpt lat="43.39014" lon="2.47423">
        <ele>555.1</ele>
        <time>2021-09-04T08:24:01Z</time>
      </trkpt>
      <trkpt lat="43.39039" lon="2.47469">
        <ele>560.5</ele>
        <time>2021-09-04T08:24:31Z</time>
      </trkpt>
      <trkpt lat="43.39072" lon="2.47495">
        <ele>556.6</ele>
        <time>2021-09-04T08:25:01Z</time>
      </trkpt>
      <trkpt lat="43.39114" lon="2.47519">
        <ele>548</ele>
        <time>2021-09-04T08:25:31Z</time>
      </trkpt>
      <trkpt lat="43.39152" lon="2.47554">
        <ele>541.1</ele>
        <time>2021-09-04T08:26:01Z</time>
      </trkpt>
      <trkpt lat="43.39157" lon="2.47601">
        <ele>549</ele>
        <time>2021-09-04T08:26:31Z</time>
      </trkpt>
      <trkpt lat="43.39166" lon="2.47634">
        <ele>550.5</ele>
        <time>2021-09-04T08:26:45Z</time>
      </trkpt>
      <trkpt lat="43.39166" lon="2.47636">
        <ele>550.8</ele>
        <time>2021-09-04T08:26:50Z</time>
      </trkpt>
      <trkpt lat="43.3919" lon="2.47696">
        <ele>550.7</ele>
        <time>2021-09-04T08:27:01Z</time>
      </trkpt>
      <trkpt lat="43.39256" lon="2.47771">
        <ele>547.9</ele>
        <time>2021-09-04T08:28:22Z</time>
      </trkpt>
      <trkpt lat="43.39291" lon="2.47784">
        <ele>546.4</ele>
        <time>2021-09-04T08:28:53Z</time>
      </trkpt>
      <trkpt lat="43.39335" lon="2.47784">
        <ele>538.4</ele>
        <time>2021-09-04T08:29:23Z</time>
      </trkpt>
      <trkpt lat="43.39412" lon="2.47779">
        <ele>530.5</ele>
        <time>2021-09-04T08:30:17Z</time>
      </trkpt>
      <trkpt lat="43.39466" lon="2.47771">
        <ele>517</ele>
        <time>2021-09-04T08:30:47Z</time>
      </trkpt>
      <trkpt lat="43.39488" lon="2.47791">
        <ele>517.3</ele>
        <time>2021-09-04T08:31:17Z</time>
      </trkpt>
      <trkpt lat="43.39495" lon="2.47842">
        <ele>526.6</ele>
        <time>2021-09-04T08:31:47Z</time>
      </trkpt>
      <trkpt lat="43.39493" lon="2.47894">
        <ele>533.3</ele>
        <time>2021-09-04T08:32:17Z</time>
      </trkpt>
      <trkpt lat="43.39495" lon="2.47894">
        <ele>532.3</ele>
        <time>2021-09-04T08:32:49Z</time>
      </trkpt>
      <trkpt lat="43.39498" lon="2.47896">
        <ele>531</ele>
        <time>2021-09-04T08:33:50Z</time>
      </trkpt>
      <trkpt lat="43.39501" lon="2.479">
        <ele>529.9</ele>
        <time>2021-09-04T08:34:20Z</time>
      </trkpt>
      <trkpt lat="43.39506" lon="2.47956">
        <ele>532.2</ele>
        <time>2021-09-04T08:34:50Z</time>
      </trkpt>
      <trkpt lat="43.3952" lon="2.48023">
        <ele>536.3</ele>
        <time>2021-09-04T08:35:21Z</time>
      </trkpt>
      <trkpt lat="43.39548" lon="2.48027">
        <ele>529.3</ele>
        <time>2021-09-04T08:35:51Z</time>
      </trkpt>
      <trkpt lat="43.39583" lon="2.48005">
        <ele>511</ele>
        <time>2021-09-04T08:36:21Z</time>
      </trkpt>
      <trkpt lat="43.39621" lon="2.48016">
        <ele>510.3</ele>
        <time>2021-09-04T08:36:45Z</time>
      </trkpt>
      <trkpt lat="43.39622" lon="2.48016">
        <ele>510.1</ele>
        <time>2021-09-04T08:36:52Z</time>
      </trkpt>
      <trkpt lat="43.39622" lon="2.48016">
        <ele>510.1</ele>
        <time>2021-09-04T08:36:52Z</time>
      </trkpt>
      <trkpt lat="43.39668" lon="2.48025">
        <ele>507.2</ele>
        <time>2021-09-04T08:37:22Z</time>
      </trkpt>
      <trkpt lat="43.39697" lon="2.48042">
        <ele>506.9</ele>
        <time>2021-09-04T08:37:52Z</time>
      </trkpt>
      <trkpt lat="43.39713" lon="2.4804">
        <ele>503.2</ele>
        <time>2021-09-04T08:38:22Z</time>
      </trkpt>
      <trkpt lat="43.39707" lon="2.48026">
        <ele>500.4</ele>
        <time>2021-09-04T08:38:52Z</time>
      </trkpt>
      <trkpt lat="43.39719" lon="2.48016">
        <ele>495.5</ele>
        <time>2021-09-04T08:39:23Z</time>
      </trkpt>
      <trkpt lat="43.39723" lon="2.47987">
        <ele>489.4</ele>
        <time>2021-09-04T08:40:12Z</time>
      </trkpt>
      <trkpt lat="43.39716" lon="2.47956">
        <ele>486.1</ele>
        <time>2021-09-04T08:40:43Z</time>
      </trkpt>
      <trkpt lat="43.39722" lon="2.4793">
        <ele>482.9</ele>
        <time>2021-09-04T08:41:17Z</time>
      </trkpt>
      <trkpt lat="43.3973" lon="2.47907">
        <ele>482.6</ele>
        <time>2021-09-04T08:41:51Z</time>
      </trkpt>
      <trkpt lat="43.3973" lon="2.47908">
        <ele>482.5</ele>
        <time>2021-09-04T08:42:22Z</time>
      </trkpt>
      <trkpt lat="43.39746" lon="2.47904">
        <ele>484.1</ele>
        <time>2021-09-04T08:42:52Z</time>
      </trkpt>
      <trkpt lat="43.39743" lon="2.47904">
        <ele>483.8</ele>
        <time>2021-09-04T08:43:23Z</time>
      </trkpt>
      <trkpt lat="43.3975" lon="2.47902">
        <ele>484.6</ele>
        <time>2021-09-04T08:43:53Z</time>
      </trkpt>
      <trkpt lat="43.39754" lon="2.47905">
        <ele>485.6</ele>
        <time>2021-09-04T08:44:29Z</time>
      </trkpt>
      <trkpt lat="43.39773" lon="2.47828">
        <ele>503.1</ele>
        <time>2021-09-04T08:46:03Z</time>
      </trkpt>
      <trkpt lat="43.39754" lon="2.47824">
        <ele>495.8</ele>
        <time>2021-09-04T08:46:33Z</time>
      </trkpt>
      <trkpt lat="43.39727" lon="2.47823">
        <ele>489.7</ele>
        <time>2021-09-04T08:46:45Z</time>
      </trkpt>
      <trkpt lat="43.39728" lon="2.47825">
        <ele>489.5</ele>
        <time>2021-09-04T08:46:53Z</time>
      </trkpt>
      <trkpt lat="43.39721" lon="2.47829">
        <ele>487.5</ele>
        <time>2021-09-04T08:47:03Z</time>
      </trkpt>
      <trkpt lat="43.39694" lon="2.47785">
        <ele>486.7</ele>
        <time>2021-09-04T08:47:33Z</time>
      </trkpt>
      <trkpt lat="43.39704" lon="2.47717">
        <ele>494.3</ele>
        <time>2021-09-04T08:48:23Z</time>
      </trkpt>
      <trkpt lat="43.39743" lon="2.47692">
        <ele>509.1</ele>
        <time>2021-09-04T08:48:53Z</time>
      </trkpt>
      <trkpt lat="43.39726" lon="2.47734">
        <ele>502.4</ele>
        <time>2021-09-04T08:49:23Z</time>
      </trkpt>
      <trkpt lat="43.39809" lon="2.47715">
        <ele>533.3</ele>
        <time>2021-09-04T08:49:53Z</time>
      </trkpt>
      <trkpt lat="43.39862" lon="2.47733">
        <ele>554.1</ele>
      </trkpt>
      <trkpt lat="43.39887" lon="2.47713">
        <ele>565.4</ele>
        <time>2021-09-04T08:50:23Z</time>
      </trkpt>
      <trkpt lat="43.39933" lon="2.47703">
        <ele>585.7</ele>
        <time>2021-09-04T08:57:30Z</time>
      </trkpt>
      <trkpt lat="43.39934" lon="2.47703">
        <ele>586.1</ele>
        <time>2021-09-04T08:57:43Z</time>
      </trkpt>
      <trkpt lat="43.39946" lon="2.47712">
        <ele>590.6</ele>
        <time>2021-09-04T08:58:13Z</time>
      </trkpt>
      <trkpt lat="43.39956" lon="2.47721">
        <ele>594.3</ele>
        <time>2021-09-04T08:58:43Z</time>
      </trkpt>
      <trkpt lat="43.39976" lon="2.4772">
        <ele>602.7</ele>
        <time>2021-09-04T08:59:13Z</time>
      </trkpt>
      <trkpt lat="43.39993" lon="2.47711">
        <ele>610.4</ele>
        <time>2021-09-04T08:59:43Z</time>
      </trkpt>
      <trkpt lat="43.40009" lon="2.47717">
        <ele>615.9</ele>
        <time>2021-09-04T09:00:13Z</time>
      </trkpt>
      <trkpt lat="43.40014" lon="2.47704">
        <ele>618.5</ele>
        <time>2021-09-04T09:00:43Z</time>
      </trkpt>
      <trkpt lat="43.40006" lon="2.47664">
        <ele>618.4</ele>
        <time>2021-09-04T09:01:13Z</time>
      </trkpt>
      <trkpt lat="43.4" lon="2.47619">
        <ele>617.5</ele>
        <time>2021-09-04T09:01:43Z</time>
      </trkpt>
      <trkpt lat="43.40009" lon="2.47573">
        <ele>623.6</ele>
        <time>2021-09-04T09:02:13Z</time>
      </trkpt>
      <trkpt lat="43.40001" lon="2.47483">
        <ele>631.6</ele>
        <time>2021-09-04T09:03:15Z</time>
      </trkpt>
      <trkpt lat="43.39985" lon="2.47445">
        <ele>634.1</ele>
        <time>2021-09-04T09:03:47Z</time>
      </trkpt>
      <trkpt lat="43.39955" lon="2.47379">
        <ele>636.5</ele>
        <time>2021-09-04T09:04:43Z</time>
      </trkpt>
      <trkpt lat="43.39943" lon="2.47331">
        <ele>640.2</ele>
        <time>2021-09-04T09:05:16Z</time>
      </trkpt>
      <trkpt lat="43.39928" lon="2.47287">
        <ele>640.6</ele>
        <time>2021-09-04T09:05:51Z</time>
      </trkpt>
      <trkpt lat="43.39928" lon="2.47239">
        <ele>644.3</ele>
        <time>2021-09-04T09:06:21Z</time>
      </trkpt>
      <trkpt lat="43.39927" lon="2.47194">
        <ele>644.9</ele>
        <time>2021-09-04T09:06:51Z</time>
      </trkpt>
      <trkpt lat="43.39932" lon="2.47165">
        <ele>646.9</ele>
        <time>2021-09-04T09:07:21Z</time>
      </trkpt>
      <trkpt lat="43.39948" lon="2.47143">
        <ele>649.2</ele>
        <time>2021-09-04T09:07:30Z</time>
      </trkpt>
      <trkpt lat="43.39949" lon="2.47145">
        <ele>649.8</ele>
        <time>2021-09-04T09:07:43Z</time>
      </trkpt>
      <trkpt lat="43.39961" lon="2.47086">
        <ele>645.8</ele>
        <time>2021-09-04T09:08:14Z</time>
      </trkpt>
      <trkpt lat="43.39991" lon="2.47052">
        <ele>648.1</ele>
        <time>2021-09-04T09:08:48Z</time>
      </trkpt>
      <trkpt lat="43.40027" lon="2.47009">
        <ele>645.1</ele>
        <time>2021-09-04T09:09:44Z</time>
      </trkpt>
      <trkpt lat="43.4006" lon="2.46985">
        <ele>643.4</ele>
        <time>2021-09-04T09:10:22Z</time>
      </trkpt>
      <trkpt lat="43.40089" lon="2.46981">
        <ele>645.7</ele>
        <time>2021-09-04T09:13:09Z</time>
      </trkpt>
      <trkpt lat="43.40121" lon="2.46978">
        <ele>641.9</ele>
        <time>2021-09-04T09:13:39Z</time>
      </trkpt>
      <trkpt lat="43.40148" lon="2.46977">
        <ele>639.3</ele>
        <time>2021-09-04T09:14:09Z</time>
      </trkpt>
      <trkpt lat="43.40191" lon="2.46992">
        <ele>643.9</ele>
        <time>2021-09-04T09:14:39Z</time>
      </trkpt>
      <trkpt lat="43.40244" lon="2.46989">
        <ele>643.3</ele>
        <time>2021-09-04T09:15:09Z</time>
      </trkpt>
      <trkpt lat="43.40304" lon="2.46986">
        <ele>653.1</ele>
        <time>2021-09-04T09:16:09Z</time>
      </trkpt>
      <trkpt lat="43.4033" lon="2.46945">
        <ele>646.3</ele>
        <time>2021-09-04T09:16:46Z</time>
      </trkpt>
      <trkpt lat="43.40355" lon="2.46912">
        <ele>647.9</ele>
        <time>2021-09-04T09:17:16Z</time>
      </trkpt>
      <trkpt lat="43.40378" lon="2.46875">
        <ele>652.6</ele>
        <time>2021-09-04T09:17:30Z</time>
      </trkpt>
      <trkpt lat="43.40377" lon="2.46876">
        <ele>652.3</ele>
        <time>2021-09-04T09:17:43Z</time>
      </trkpt>
      <trkpt lat="43.4038" lon="2.46872">
        <ele>653</ele>
        <time>2021-09-04T09:17:46Z</time>
      </trkpt>
      <trkpt lat="43.40391" lon="2.46806">
        <ele>649.1</ele>
        <time>2021-09-04T09:18:26Z</time>
      </trkpt>
      <trkpt lat="43.40417" lon="2.46724">
        <ele>649.4</ele>
        <time>2021-09-04T09:19:16Z</time>
      </trkpt>
      <trkpt lat="43.40437" lon="2.4669">
        <ele>649</ele>
        <time>2021-09-04T09:19:46Z</time>
      </trkpt>
      <trkpt lat="43.4047" lon="2.46672">
        <ele>652.5</ele>
        <time>2021-09-04T09:20:16Z</time>
      </trkpt>
      <trkpt lat="43.40498" lon="2.46662">
        <ele>657</ele>
        <time>2021-09-04T09:20:46Z</time>
      </trkpt>
      <trkpt lat="43.40496" lon="2.46656">
        <ele>657.2</ele>
        <time>2021-09-04T09:21:16Z</time>
      </trkpt>
      <trkpt lat="43.405" lon="2.46657">
        <ele>657.8</ele>
        <time>2021-09-04T09:21:46Z</time>
      </trkpt>
      <trkpt lat="43.40501" lon="2.46655">
        <ele>658.3</ele>
        <time>2021-09-04T09:22:16Z</time>
      </trkpt>
      <trkpt lat="43.40491" lon="2.46652">
        <ele>656.6</ele>
        <time>2021-09-04T09:22:46Z</time>
      </trkpt>
      <trkpt lat="43.40464" lon="2.46618">
        <ele>656.2</ele>
        <time>2021-09-04T09:23:16Z</time>
      </trkpt>
      <trkpt lat="43.40441" lon="2.46582">
        <ele>658.7</ele>
        <time>2021-09-04T09:23:46Z</time>
      </trkpt>
      <trkpt lat="43.40381" lon="2.46539">
        <ele>672.5</ele>
        <time>2021-09-04T09:25:12Z</time>
      </trkpt>
      <trkpt lat="43.40338" lon="2.4654">
        <ele>677.6</ele>
        <time>2021-09-04T09:26:08Z</time>
      </trkpt>
      <trkpt lat="43.4029" lon="2.46542">
        <ele>680.7</ele>
        <time>2021-09-04T09:27:00Z</time>
      </trkpt>
      <trkpt lat="43.40261" lon="2.46529">
        <ele>686</ele>
        <time>2021-09-04T09:27:30Z</time>
      </trkpt>
      <trkpt lat="43.40266" lon="2.46532">
        <ele>685</ele>
        <time>2021-09-04T09:27:31Z</time>
      </trkpt>
      <trkpt lat="43.40261" lon="2.4653">
        <ele>685.8</ele>
        <time>2021-09-04T09:27:43Z</time>
      </trkpt>
      <trkpt lat="43.40252" lon="2.46518">
        <ele>689</ele>
        <time>2021-09-04T09:28:01Z</time>
      </trkpt>
      <trkpt lat="43.40237" lon="2.46487">
        <ele>693.3</ele>
        <time>2021-09-04T09:28:31Z</time>
      </trkpt>
      <trkpt lat="43.40224" lon="2.46454">
        <ele>697.6</ele>
        <time>2021-09-04T09:29:01Z</time>
      </trkpt>
      <trkpt lat="43.40203" lon="2.46411">
        <ele>702.9</ele>
        <time>2021-09-04T09:29:31Z</time>
      </trkpt>
      <trkpt lat="43.40186" lon="2.46387">
        <ele>705.7</ele>
        <time>2021-09-04T09:30:01Z</time>
      </trkpt>
      <trkpt lat="43.40161" lon="2.46358">
        <ele>708.7</ele>
        <time>2021-09-04T09:30:31Z</time>
      </trkpt>
      <trkpt lat="43.40141" lon="2.46331">
        <ele>713.4</ele>
        <time>2021-09-04T09:31:01Z</time>
      </trkpt>
      <trkpt lat="43.40119" lon="2.46331">
        <ele>711.6</ele>
        <time>2021-09-04T09:31:31Z</time>
      </trkpt>
      <trkpt lat="43.40079" lon="2.46294">
        <ele>716.6</ele>
        <time>2021-09-04T09:32:01Z</time>
      </trkpt>
      <trkpt lat="43.40061" lon="2.46278">
        <ele>716.9</ele>
        <time>2021-09-04T09:32:31Z</time>
      </trkpt>
      <trkpt lat="43.40055" lon="2.46239">
        <ele>723.9</ele>
        <time>2021-09-04T09:33:01Z</time>
      </trkpt>
      <trkpt lat="43.40065" lon="2.4622">
        <ele>728.9</ele>
        <time>2021-09-04T09:34:02Z</time>
      </trkpt>
      <trkpt lat="43.40078" lon="2.46234">
        <ele>729.5</ele>
        <time>2021-09-04T09:34:33Z</time>
      </trkpt>
      <trkpt lat="43.40112" lon="2.46244">
        <ele>732.1</ele>
        <time>2021-09-04T09:35:03Z</time>
      </trkpt>
      <trkpt lat="43.40121" lon="2.46177">
        <ele>744.7</ele>
        <time>2021-09-04T09:36:00Z</time>
      </trkpt>
      <trkpt lat="43.40116" lon="2.46132">
        <ele>751.5</ele>
        <time>2021-09-04T09:36:33Z</time>
      </trkpt>
      <trkpt lat="43.40099" lon="2.46051">
        <ele>761.2</ele>
        <time>2021-09-04T09:37:29Z</time>
      </trkpt>
      <trkpt lat="43.401" lon="2.46032">
        <ele>763.9</ele>
        <time>2021-09-04T09:37:30Z</time>
      </trkpt>
      <trkpt lat="43.401" lon="2.46032">
        <ele>763.9</ele>
        <time>2021-09-04T09:37:44Z</time>
      </trkpt>
      <trkpt lat="43.40096" lon="2.46011">
        <ele>765.9</ele>
        <time>2021-09-04T09:37:59Z</time>
      </trkpt>
      <trkpt lat="43.40097" lon="2.45973">
        <ele>767.8</ele>
        <time>2021-09-04T09:38:29Z</time>
      </trkpt>
      <trkpt lat="43.40093" lon="2.4593">
        <ele>767.3</ele>
        <time>2021-09-04T09:38:59Z</time>
      </trkpt>
      <trkpt lat="43.40089" lon="2.45881">
        <ele>766.9</ele>
        <time>2021-09-04T09:39:29Z</time>
      </trkpt>
      <trkpt lat="43.40092" lon="2.45785">
        <ele>769.9</ele>
        <time>2021-09-04T09:40:27Z</time>
      </trkpt>
      <trkpt lat="43.40088" lon="2.45759">
        <ele>769.8</ele>
        <time>2021-09-04T09:40:59Z</time>
      </trkpt>
      <trkpt lat="43.40078" lon="2.4572">
        <ele>769.4</ele>
        <time>2021-09-04T09:41:35Z</time>
      </trkpt>
      <trkpt lat="43.40071" lon="2.45681">
        <ele>770.3</ele>
        <time>2021-09-04T09:42:05Z</time>
      </trkpt>
      <trkpt lat="43.40065" lon="2.45645">
        <ele>771.4</ele>
        <time>2021-09-04T09:42:35Z</time>
      </trkpt>
      <trkpt lat="43.40061" lon="2.45619">
        <ele>772.4</ele>
        <time>2021-09-04T09:43:05Z</time>
      </trkpt>
      <trkpt lat="43.40061" lon="2.45604">
        <ele>773.4</ele>
        <time>2021-09-04T09:43:35Z</time>
      </trkpt>
      <trkpt lat="43.40053" lon="2.45561">
        <ele>775.2</ele>
        <time>2021-09-04T09:44:05Z</time>
      </trkpt>
      <trkpt lat="43.40043" lon="2.45536">
        <ele>775.6</ele>
        <time>2021-09-04T09:44:35Z</time>
      </trkpt>
      <trkpt lat="43.40033" lon="2.4551">
        <ele>776</ele>
        <time>2021-09-04T09:45:07Z</time>
      </trkpt>
      <trkpt lat="43.40014" lon="2.45449">
        <ele>777.4</ele>
        <time>2021-09-04T09:46:00Z</time>
      </trkpt>
      <trkpt lat="43.39998" lon="2.45405">
        <ele>778.3</ele>
        <time>2021-09-04T09:46:31Z</time>
      </trkpt>
      <trkpt lat="43.39983" lon="2.45363">
        <ele>779.2</ele>
        <time>2021-09-04T09:47:03Z</time>
      </trkpt>
      <trkpt lat="43.39952" lon="2.4533">
        <ele>779.9</ele>
        <time>2021-09-04T09:47:30Z</time>
      </trkpt>
      <trkpt lat="43.3996" lon="2.45339">
        <ele>779.5</ele>
        <time>2021-09-04T09:47:34Z</time>
      </trkpt>
      <trkpt lat="43.39952" lon="2.4533">
        <ele>779.9</ele>
        <time>2021-09-04T09:47:44Z</time>
      </trkpt>
      <trkpt lat="43.3994" lon="2.45313">
        <ele>780.2</ele>
        <time>2021-09-04T09:48:06Z</time>
      </trkpt>
      <trkpt lat="43.39924" lon="2.45282">
        <ele>781.8</ele>
        <time>2021-09-04T09:48:36Z</time>
      </trkpt>
      <trkpt lat="43.39905" lon="2.45237">
        <ele>783</ele>
        <time>2021-09-04T09:49:06Z</time>
      </trkpt>
      <trkpt lat="43.39888" lon="2.45212">
        <ele>781.8</ele>
        <time>2021-09-04T09:49:36Z</time>
      </trkpt>
      <trkpt lat="43.39872" lon="2.45162">
        <ele>781.4</ele>
        <time>2021-09-04T09:50:06Z</time>
      </trkpt>
      <trkpt lat="43.39856" lon="2.45125">
        <ele>781.6</ele>
        <time>2021-09-04T09:50:36Z</time>
      </trkpt>
      <trkpt lat="43.39841" lon="2.45075">
        <ele>782.9</ele>
        <time>2021-09-04T09:51:06Z</time>
      </trkpt>
      <trkpt lat="43.39851" lon="2.45051">
        <ele>782.6</ele>
        <time>2021-09-04T09:51:36Z</time>
      </trkpt>
      <trkpt lat="43.39878" lon="2.45077">
        <ele>781.8</ele>
        <time>2021-09-04T09:52:06Z</time>
      </trkpt>
      <trkpt lat="43.39934" lon="2.45124">
        <ele>781.5</ele>
        <time>2021-09-04T09:53:26Z</time>
      </trkpt>
      <trkpt lat="43.39933" lon="2.45128">
        <ele>781.6</ele>
        <time>2021-09-04T09:53:58Z</time>
      </trkpt>
      <trkpt lat="43.39931" lon="2.45126">
        <ele>781.6</ele>
        <time>2021-09-04T09:54:28Z</time>
      </trkpt>
      <trkpt lat="43.3995" lon="2.45147">
        <ele>781.6</ele>
        <time>2021-09-04T09:54:58Z</time>
      </trkpt>
      <trkpt lat="43.39989" lon="2.45169">
        <ele>781.3</ele>
        <time>2021-09-04T09:55:28Z</time>
      </trkpt>
      <trkpt lat="43.40025" lon="2.45179">
        <ele>781</ele>
        <time>2021-09-04T09:55:58Z</time>
      </trkpt>
      <trkpt lat="43.40066" lon="2.45188">
        <ele>780.9</ele>
        <time>2021-09-04T09:56:28Z</time>
      </trkpt>
      <trkpt lat="43.40098" lon="2.4519">
        <ele>781.4</ele>
        <time>2021-09-04T09:56:59Z</time>
      </trkpt>
      <trkpt lat="43.40133" lon="2.45198">
        <ele>783.1</ele>
        <time>2021-09-04T09:57:29Z</time>
      </trkpt>
      <trkpt lat="43.4015" lon="2.45197">
        <ele>783.7</ele>
        <time>2021-09-04T09:57:30Z</time>
      </trkpt>
      <trkpt lat="43.40151" lon="2.45198">
        <ele>783.8</ele>
        <time>2021-09-04T09:57:44Z</time>
      </trkpt>
      <trkpt lat="43.40169" lon="2.45192">
        <ele>784.4</ele>
        <time>2021-09-04T09:57:59Z</time>
      </trkpt>
      <trkpt lat="43.40207" lon="2.45175">
        <ele>785.6</ele>
        <time>2021-09-04T09:58:29Z</time>
      </trkpt>
      <trkpt lat="43.40239" lon="2.45136">
        <ele>786.2</ele>
        <time>2021-09-04T09:59:00Z</time>
      </trkpt>
      <trkpt lat="43.40277" lon="2.45111">
        <ele>787.2</ele>
        <time>2021-09-04T09:59:30Z</time>
      </trkpt>
      <trkpt lat="43.40305" lon="2.45082">
        <ele>787.3</ele>
        <time>2021-09-04T10:00:00Z</time>
      </trkpt>
      <trkpt lat="43.40338" lon="2.4505">
        <ele>787.9</ele>
        <time>2021-09-04T10:00:30Z</time>
      </trkpt>
      <trkpt lat="43.40368" lon="2.45005">
        <ele>789.1</ele>
        <time>2021-09-04T10:01:00Z</time>
      </trkpt>
      <trkpt lat="43.40399" lon="2.44974">
        <ele>790.8</ele>
        <time>2021-09-04T10:01:30Z</time>
      </trkpt>
      <trkpt lat="43.40458" lon="2.44926">
        <ele>794.4</ele>
        <time>2021-09-04T10:02:25Z</time>
      </trkpt>
      <trkpt lat="43.40487" lon="2.44883">
        <ele>797.4</ele>
        <time>2021-09-04T10:02:55Z</time>
      </trkpt>
      <trkpt lat="43.40515" lon="2.44845">
        <ele>799.8</ele>
        <time>2021-09-04T10:03:29Z</time>
      </trkpt>
      <trkpt lat="43.40547" lon="2.4482">
        <ele>802.3</ele>
        <time>2021-09-04T10:04:01Z</time>
      </trkpt>
      <trkpt lat="43.40581" lon="2.44794">
        <ele>804.8</ele>
        <time>2021-09-04T10:04:31Z</time>
      </trkpt>
      <trkpt lat="43.40638" lon="2.44763">
        <ele>807.7</ele>
        <time>2021-09-04T10:05:21Z</time>
      </trkpt>
      <trkpt lat="43.40678" lon="2.44745">
        <ele>809.4</ele>
        <time>2021-09-04T10:05:54Z</time>
      </trkpt>
      <trkpt lat="43.40716" lon="2.44732">
        <ele>810.9</ele>
        <time>2021-09-04T10:06:27Z</time>
      </trkpt>
      <trkpt lat="43.40749" lon="2.44712">
        <ele>812.8</ele>
        <time>2021-09-04T10:07:00Z</time>
      </trkpt>
      <trkpt lat="43.40763" lon="2.44679">
        <ele>815.9</ele>
        <time>2021-09-04T10:07:30Z</time>
      </trkpt>
      <trkpt lat="43.4077" lon="2.4466">
        <ele>817.6</ele>
        <time>2021-09-04T10:07:45Z</time>
      </trkpt>
      <trkpt lat="43.40771" lon="2.44662">
        <ele>817.7</ele>
        <time>2021-09-04T10:07:45Z</time>
      </trkpt>
      <trkpt lat="43.40775" lon="2.44615">
        <ele>820</ele>
        <time>2021-09-04T10:08:23Z</time>
      </trkpt>
      <trkpt lat="43.40789" lon="2.446">
        <ele>822.8</ele>
        <time>2021-09-04T10:08:55Z</time>
      </trkpt>
      <trkpt lat="43.40813" lon="2.44589">
        <ele>827.2</ele>
        <time>2021-09-04T10:09:25Z</time>
      </trkpt>
      <trkpt lat="43.4084" lon="2.44585">
        <ele>832.2</ele>
        <time>2021-09-04T10:10:00Z</time>
      </trkpt>
      <trkpt lat="43.40855" lon="2.44568">
        <ele>836.2</ele>
        <time>2021-09-04T10:10:30Z</time>
      </trkpt>
      <trkpt lat="43.40857" lon="2.44569">
        <ele>836.6</ele>
        <time>2021-09-04T10:17:30Z</time>
      </trkpt>
      <trkpt lat="43.40856" lon="2.44569">
        <ele>836.3</ele>
        <time>2021-09-04T10:17:45Z</time>
      </trkpt>
      <trkpt lat="43.40856" lon="2.44568">
        <ele>836.4</ele>
        <time>2021-09-04T10:17:45Z</time>
      </trkpt>
      <trkpt lat="43.40855" lon="2.44573">
        <ele>835.9</ele>
        <time>2021-09-04T10:18:25Z</time>
      </trkpt>
      <trkpt lat="43.40847" lon="2.44571">
        <ele>834.3</ele>
        <time>2021-09-04T10:20:09Z</time>
      </trkpt>
      <trkpt lat="43.40863" lon="2.44576">
        <ele>837.5</ele>
        <time>2021-09-04T10:20:58Z</time>
      </trkpt>
      <trkpt lat="43.40853" lon="2.44571">
        <ele>835.6</ele>
        <time>2021-09-04T10:21:31Z</time>
      </trkpt>
      <trkpt lat="43.40858" lon="2.4457">
        <ele>836.7</ele>
        <time>2021-09-04T10:22:01Z</time>
      </trkpt>
      <trkpt lat="43.40851" lon="2.44572">
        <ele>835.1</ele>
        <time>2021-09-04T10:22:31Z</time>
      </trkpt>
      <trkpt lat="43.40856" lon="2.4457">
        <ele>836.3</ele>
        <time>2021-09-04T10:23:25Z</time>
      </trkpt>
      <trkpt lat="43.40856" lon="2.44566">
        <ele>836.5</ele>
        <time>2021-09-04T10:23:55Z</time>
      </trkpt>
      <trkpt lat="43.4086" lon="2.44556">
        <ele>837.9</ele>
        <time>2021-09-04T10:24:25Z</time>
      </trkpt>
      <trkpt lat="43.40873" lon="2.44588">
        <ele>838.7</ele>
        <time>2021-09-04T10:24:55Z</time>
      </trkpt>
      <trkpt lat="43.40885" lon="2.44628">
        <ele>837.3</ele>
        <time>2021-09-04T10:25:25Z</time>
      </trkpt>
      <trkpt lat="43.40909" lon="2.44671">
        <ele>837.2</ele>
        <time>2021-09-04T10:25:59Z</time>
      </trkpt>
      <trkpt lat="43.40941" lon="2.44693">
        <ele>839.4</ele>
        <time>2021-09-04T10:26:31Z</time>
      </trkpt>
      <trkpt lat="43.40979" lon="2.44707">
        <ele>842.4</ele>
        <time>2021-09-04T10:27:01Z</time>
      </trkpt>
      <trkpt lat="43.41016" lon="2.44706">
        <ele>847.4</ele>
        <time>2021-09-04T10:27:31Z</time>
      </trkpt>
      <trkpt lat="43.41028" lon="2.44712">
        <ele>847.2</ele>
        <time>2021-09-04T10:27:45Z</time>
      </trkpt>
      <trkpt lat="43.41028" lon="2.44712">
        <ele>847.2</ele>
        <time>2021-09-04T10:27:46Z</time>
      </trkpt>
      <trkpt lat="43.41048" lon="2.44725">
        <ele>845.9</ele>
        <time>2021-09-04T10:28:01Z</time>
      </trkpt>
      <trkpt lat="43.41149" lon="2.44768">
        <ele>845.9</ele>
        <time>2021-09-04T10:29:18Z</time>
      </trkpt>
      <trkpt lat="43.41196" lon="2.44774">
        <ele>848.4</ele>
        <time>2021-09-04T10:30:12Z</time>
      </trkpt>
      <trkpt lat="43.41231" lon="2.44782">
        <ele>849.8</ele>
        <time>2021-09-04T10:30:43Z</time>
      </trkpt>
      <trkpt lat="43.41253" lon="2.44799">
        <ele>850.4</ele>
        <time>2021-09-04T10:31:13Z</time>
      </trkpt>
      <trkpt lat="43.4121" lon="2.44842">
        <ele>847.7</ele>
        <time>2021-09-04T10:31:55Z</time>
      </trkpt>
      <trkpt lat="43.41168" lon="2.4487">
        <ele>850.1</ele>
        <time>2021-09-04T10:32:36Z</time>
      </trkpt>
      <trkpt lat="43.41137" lon="2.44903">
        <ele>852.3</ele>
        <time>2021-09-04T10:33:06Z</time>
      </trkpt>
      <trkpt lat="43.4111" lon="2.4494">
        <ele>854.4</ele>
        <time>2021-09-04T10:33:36Z</time>
      </trkpt>
      <trkpt lat="43.4109" lon="2.4496">
        <ele>854.4</ele>
        <time>2021-09-04T10:34:06Z</time>
      </trkpt>
      <trkpt lat="43.4107" lon="2.44995">
        <ele>857.4</ele>
        <time>2021-09-04T10:34:36Z</time>
      </trkpt>
      <trkpt lat="43.41061" lon="2.45019">
        <ele>860.2</ele>
        <time>2021-09-04T10:35:06Z</time>
      </trkpt>
      <trkpt lat="43.41047" lon="2.45058">
        <ele>864.9</ele>
        <time>2021-09-04T10:35:36Z</time>
      </trkpt>
      <trkpt lat="43.41033" lon="2.45091">
        <ele>868.5</ele>
        <time>2021-09-04T10:36:06Z</time>
      </trkpt>
      <trkpt lat="43.41032" lon="2.45123">
        <ele>873.3</ele>
        <time>2021-09-04T10:36:37Z</time>
      </trkpt>
      <trkpt lat="43.41029" lon="2.45134">
        <ele>874.5</ele>
        <time>2021-09-04T10:37:09Z</time>
      </trkpt>
      <trkpt lat="43.41029" lon="2.45163">
        <ele>879</ele>
        <time>2021-09-04T10:37:39Z</time>
      </trkpt>
      <trkpt lat="43.41029" lon="2.45167">
        <ele>879.6</ele>
        <time>2021-09-04T10:37:45Z</time>
      </trkpt>
      <trkpt lat="43.41029" lon="2.45167">
        <ele>879.6</ele>
        <time>2021-09-04T10:37:47Z</time>
      </trkpt>
      <trkpt lat="43.41039" lon="2.45189">
        <ele>883.5</ele>
        <time>2021-09-04T10:38:10Z</time>
      </trkpt>
      <trkpt lat="43.41054" lon="2.45209">
        <ele>888.1</ele>
        <time>2021-09-04T10:38:40Z</time>
      </trkpt>
      <trkpt lat="43.41066" lon="2.45226">
        <ele>892.1</ele>
        <time>2021-09-04T10:39:10Z</time>
      </trkpt>
      <trkpt lat="43.41085" lon="2.45237">
        <ele>896.8</ele>
        <time>2021-09-04T10:39:41Z</time>
      </trkpt>
      <trkpt lat="43.41096" lon="2.45269">
        <ele>903.5</ele>
        <time>2021-09-04T10:40:11Z</time>
      </trkpt>
      <trkpt lat="43.41102" lon="2.45282">
        <ele>906.6</ele>
        <time>2021-09-04T10:40:41Z</time>
      </trkpt>
      <trkpt lat="43.4112" lon="2.453">
        <ele>913.1</ele>
        <time>2021-09-04T10:41:11Z</time>
      </trkpt>
      <trkpt lat="43.41134" lon="2.45321">
        <ele>919</ele>
        <time>2021-09-04T10:41:41Z</time>
      </trkpt>
      <trkpt lat="43.4115" lon="2.45344">
        <ele>925.3</ele>
        <time>2021-09-04T10:42:11Z</time>
      </trkpt>
      <trkpt lat="43.41154" lon="2.45352">
        <ele>927.1</ele>
        <time>2021-09-04T10:42:41Z</time>
      </trkpt>
      <trkpt lat="43.41172" lon="2.45368">
        <ele>933.1</ele>
        <time>2021-09-04T10:43:11Z</time>
      </trkpt>
      <trkpt lat="43.41176" lon="2.45372">
        <ele>934.5</ele>
        <time>2021-09-04T10:43:41Z</time>
      </trkpt>
      <trkpt lat="43.41179" lon="2.45374">
        <ele>935.5</ele>
        <time>2021-09-04T10:44:11Z</time>
      </trkpt>
      <trkpt lat="43.41195" lon="2.45398">
        <ele>942.3</ele>
        <time>2021-09-04T10:44:41Z</time>
      </trkpt>
      <trkpt lat="43.41212" lon="2.4541">
        <ele>948.2</ele>
        <time>2021-09-04T10:45:11Z</time>
      </trkpt>
      <trkpt lat="43.41227" lon="2.45428">
        <ele>954.4</ele>
        <time>2021-09-04T10:45:41Z</time>
      </trkpt>
      <trkpt lat="43.4124" lon="2.45451">
        <ele>960.8</ele>
        <time>2021-09-04T10:46:11Z</time>
      </trkpt>
      <trkpt lat="43.41248" lon="2.45475">
        <ele>966.2</ele>
        <time>2021-09-04T10:46:41Z</time>
      </trkpt>
      <trkpt lat="43.41273" lon="2.45492">
        <ele>975.2</ele>
        <time>2021-09-04T10:47:27Z</time>
      </trkpt>
      <trkpt lat="43.41271" lon="2.4551">
        <ele>977.1</ele>
        <time>2021-09-04T10:47:45Z</time>
      </trkpt>
      <trkpt lat="43.41271" lon="2.45511">
        <ele>977.2</ele>
        <time>2021-09-04T10:47:47Z</time>
      </trkpt>
      <trkpt lat="43.41275" lon="2.45514">
        <ele>978.7</ele>
        <time>2021-09-04T10:47:57Z</time>
      </trkpt>
      <trkpt lat="43.413" lon="2.45522">
        <ele>986.7</ele>
        <time>2021-09-04T10:48:27Z</time>
      </trkpt>
      <trkpt lat="43.41311" lon="2.45541">
        <ele>992.2</ele>
        <time>2021-09-04T10:48:57Z</time>
      </trkpt>
      <trkpt lat="43.41322" lon="2.45558">
        <ele>997.5</ele>
        <time>2021-09-04T10:49:27Z</time>
      </trkpt>
      <trkpt lat="43.41328" lon="2.45585">
        <ele>1002.7</ele>
        <time>2021-09-04T10:49:57Z</time>
      </trkpt>
      <trkpt lat="43.41334" lon="2.45616">
        <ele>1007.3</ele>
        <time>2021-09-04T10:50:27Z</time>
      </trkpt>
      <trkpt lat="43.41331" lon="2.45644">
        <ele>1009.1</ele>
        <time>2021-09-04T10:50:57Z</time>
      </trkpt>
      <trkpt lat="43.4135" lon="2.45672">
        <ele>1016.8</ele>
        <time>2021-09-04T10:51:27Z</time>
      </trkpt>
      <trkpt lat="43.41364" lon="2.45697">
        <ele>1022.1</ele>
        <time>2021-09-04T10:51:57Z</time>
      </trkpt>
      <trkpt lat="43.4137" lon="2.45719">
        <ele>1025.2</ele>
        <time>2021-09-04T10:52:27Z</time>
      </trkpt>
      <trkpt lat="43.41385" lon="2.45747">
        <ele>1030.8</ele>
        <time>2021-09-04T10:52:57Z</time>
      </trkpt>
      <trkpt lat="43.41398" lon="2.45769">
        <ele>1034.5</ele>
        <time>2021-09-04T10:53:27Z</time>
      </trkpt>
      <trkpt lat="43.41413" lon="2.45776">
        <ele>1038.4</ele>
        <time>2021-09-04T10:53:57Z</time>
      </trkpt>
      <trkpt lat="43.4143" lon="2.45778">
        <ele>1041.9</ele>
        <time>2021-09-04T10:54:27Z</time>
      </trkpt>
      <trkpt lat="43.41451" lon="2.4577">
        <ele>1045.9</ele>
        <time>2021-09-04T10:54:57Z</time>
      </trkpt>
      <trkpt lat="43.41467" lon="2.45754">
        <ele>1049.2</ele>
        <time>2021-09-04T10:55:27Z</time>
      </trkpt>
      <trkpt lat="43.41468" lon="2.45709">
        <ele>1047</ele>
        <time>2021-09-04T10:55:57Z</time>
      </trkpt>
      <trkpt lat="43.4149" lon="2.45708">
        <ele>1051.4</ele>
        <time>2021-09-04T10:57:17Z</time>
      </trkpt>
      <trkpt lat="43.41501" lon="2.45733">
        <ele>1055</ele>
        <time>2021-09-04T10:57:45Z</time>
      </trkpt>
      <trkpt lat="43.41502" lon="2.45735">
        <ele>1055.1</ele>
        <time>2021-09-04T10:57:47Z</time>
      </trkpt>
      <trkpt lat="43.41502" lon="2.45735">
        <ele>1055.1</ele>
        <time>2021-09-04T10:57:48Z</time>
      </trkpt>
      <trkpt lat="43.41519" lon="2.45776">
        <ele>1055.9</ele>
        <time>2021-09-04T10:58:18Z</time>
      </trkpt>
      <trkpt lat="43.41548" lon="2.45783">
        <ele>1056.8</ele>
        <time>2021-09-04T10:58:49Z</time>
      </trkpt>
      <trkpt lat="43.41576" lon="2.45815">
        <ele>1059.4</ele>
        <time>2021-09-04T10:59:19Z</time>
      </trkpt>
      <trkpt lat="43.41607" lon="2.45847">
        <ele>1061.4</ele>
        <time>2021-09-04T10:59:53Z</time>
      </trkpt>
      <trkpt lat="43.41636" lon="2.45878">
        <ele>1063.5</ele>
        <time>2021-09-04T11:00:23Z</time>
      </trkpt>
      <trkpt lat="43.41662" lon="2.45903">
        <ele>1066.6</ele>
        <time>2021-09-04T11:00:53Z</time>
      </trkpt>
      <trkpt lat="43.41685" lon="2.45929">
        <ele>1070.6</ele>
        <time>2021-09-04T11:01:23Z</time>
      </trkpt>
      <trkpt lat="43.41706" lon="2.4595">
        <ele>1074.5</ele>
        <time>2021-09-04T11:01:54Z</time>
      </trkpt>
      <trkpt lat="43.41727" lon="2.45973">
        <ele>1079.1</ele>
        <time>2021-09-04T11:02:24Z</time>
      </trkpt>
      <trkpt lat="43.41748" lon="2.45989">
        <ele>1083.5</ele>
        <time>2021-09-04T11:02:54Z</time>
      </trkpt>
      <trkpt lat="43.41769" lon="2.46017">
        <ele>1087.7</ele>
        <time>2021-09-04T11:03:24Z</time>
      </trkpt>
      <trkpt lat="43.41789" lon="2.46036">
        <ele>1090.9</ele>
        <time>2021-09-04T11:03:54Z</time>
      </trkpt>
      <trkpt lat="43.41806" lon="2.46061">
        <ele>1094.3</ele>
        <time>2021-09-04T11:04:24Z</time>
      </trkpt>
      <trkpt lat="43.41829" lon="2.46082">
        <ele>1098.4</ele>
        <time>2021-09-04T11:04:54Z</time>
      </trkpt>
      <trkpt lat="43.41851" lon="2.46108">
        <ele>1102.3</ele>
        <time>2021-09-04T11:05:24Z</time>
      </trkpt>
      <trkpt lat="43.41873" lon="2.46135">
        <ele>1106.8</ele>
        <time>2021-09-04T11:05:54Z</time>
      </trkpt>
      <trkpt lat="43.41877" lon="2.46144">
        <ele>1108</ele>
        <time>2021-09-04T11:06:24Z</time>
      </trkpt>
      <trkpt lat="43.41878" lon="2.46141">
        <ele>1107.9</ele>
        <time>2021-09-04T11:06:54Z</time>
      </trkpt>
      <trkpt lat="43.41877" lon="2.46141">
        <ele>1107.7</ele>
        <time>2021-09-04T11:07:45Z</time>
      </trkpt>
      <trkpt lat="43.41878" lon="2.46141">
        <ele>1107.9</ele>
        <time>2021-09-04T11:07:49Z</time>
      </trkpt>
      <trkpt lat="43.41879" lon="2.46143">
        <ele>1108.2</ele>
        <time>2021-09-04T11:07:55Z</time>
      </trkpt>
      <trkpt lat="43.41906" lon="2.46162">
        <ele>1113.2</ele>
        <time>2021-09-04T11:08:25Z</time>
      </trkpt>
      <trkpt lat="43.41931" lon="2.46187">
        <ele>1116.2</ele>
        <time>2021-09-04T11:08:55Z</time>
      </trkpt>
      <trkpt lat="43.41949" lon="2.4621">
        <ele>1118.1</ele>
        <time>2021-09-04T11:09:25Z</time>
      </trkpt>
      <trkpt lat="43.42023" lon="2.4629">
        <ele>1127.9</ele>
        <time>2021-09-04T11:10:40Z</time>
      </trkpt>
      <trkpt lat="43.42049" lon="2.46322">
        <ele>1131.8</ele>
        <time>2021-09-04T11:11:11Z</time>
      </trkpt>
      <trkpt lat="43.42069" lon="2.4635">
        <ele>1135.1</ele>
        <time>2021-09-04T11:11:41Z</time>
      </trkpt>
      <trkpt lat="43.42082" lon="2.46386">
        <ele>1138.7</ele>
        <time>2021-09-04T11:12:11Z</time>
      </trkpt>
      <trkpt lat="43.42101" lon="2.46396">
        <ele>1142.6</ele>
        <time>2021-09-04T11:12:42Z</time>
      </trkpt>
      <trkpt lat="43.42127" lon="2.46409">
        <ele>1147.9</ele>
        <time>2021-09-04T11:13:12Z</time>
      </trkpt>
      <trkpt lat="43.42153" lon="2.4642">
        <ele>1152.7</ele>
        <time>2021-09-04T11:13:42Z</time>
      </trkpt>
      <trkpt lat="43.42159" lon="2.46424">
        <ele>1153.7</ele>
        <time>2021-09-04T11:14:12Z</time>
      </trkpt>
      <trkpt lat="43.42176" lon="2.46433">
        <ele>1156.8</ele>
        <time>2021-09-04T11:14:42Z</time>
      </trkpt>
      <trkpt lat="43.422" lon="2.46441">
        <ele>1161.6</ele>
        <time>2021-09-04T11:15:12Z</time>
      </trkpt>
      <trkpt lat="43.42226" lon="2.46445">
        <ele>1166.7</ele>
        <time>2021-09-04T11:15:42Z</time>
      </trkpt>
      <trkpt lat="43.42246" lon="2.46439">
        <ele>1171.1</ele>
        <time>2021-09-04T11:16:12Z</time>
      </trkpt>
      <trkpt lat="43.42264" lon="2.4643">
        <ele>1175.1</ele>
        <time>2021-09-04T11:16:42Z</time>
      </trkpt>
      <trkpt lat="43.42286" lon="2.46418">
        <ele>1180.3</ele>
        <time>2021-09-04T11:17:12Z</time>
      </trkpt>
      <trkpt lat="43.42286" lon="2.46418">
        <ele>1180.3</ele>
        <time>2021-09-04T11:17:45Z</time>
      </trkpt>
      <trkpt lat="43.42286" lon="2.46418">
        <ele>1180.3</ele>
        <time>2021-09-04T11:17:49Z</time>
      </trkpt>
      <trkpt lat="43.42286" lon="2.46416">
        <ele>1180.4</ele>
        <time>2021-09-04T11:18:44Z</time>
      </trkpt>
      <trkpt lat="43.42285" lon="2.46413">
        <ele>1180.2</ele>
        <time>2021-09-04T11:20:19Z</time>
      </trkpt>
      <trkpt lat="43.42285" lon="2.46416">
        <ele>1180.2</ele>
        <time>2021-09-04T11:20:49Z</time>
      </trkpt>
      <trkpt lat="43.42287" lon="2.46416">
        <ele>1180.6</ele>
        <time>2021-09-04T11:21:20Z</time>
      </trkpt>
      <trkpt lat="43.42288" lon="2.46418">
        <ele>1180.7</ele>
        <time>2021-09-04T11:25:24Z</time>
      </trkpt>
      <trkpt lat="43.42287" lon="2.46418">
        <ele>1180.5</ele>
        <time>2021-09-04T11:27:45Z</time>
      </trkpt>
      <trkpt lat="43.42288" lon="2.46418">
        <ele>1180.7</ele>
        <time>2021-09-04T11:27:49Z</time>
      </trkpt>
      <trkpt lat="43.42286" lon="2.46417">
        <ele>1180.3</ele>
        <time>2021-09-04T11:28:21Z</time>
      </trkpt>
      <trkpt lat="43.42286" lon="2.46419">
        <ele>1180.2</ele>
        <time>2021-09-04T11:28:51Z</time>
      </trkpt>
      <trkpt lat="43.42288" lon="2.46417">
        <ele>1180.7</ele>
        <time>2021-09-04T11:29:21Z</time>
      </trkpt>
      <trkpt lat="43.423" lon="2.46424">
        <ele>1182.7</ele>
        <time>2021-09-04T11:30:23Z</time>
      </trkpt>
      <trkpt lat="43.42285" lon="2.46412">
        <ele>1180.3</ele>
        <time>2021-09-04T11:30:53Z</time>
      </trkpt>
      <trkpt lat="43.42301" lon="2.46411">
        <ele>1183.6</ele>
        <time>2021-09-04T11:31:49Z</time>
      </trkpt>
      <trkpt lat="43.42323" lon="2.46389">
        <ele>1189.1</ele>
        <time>2021-09-04T11:32:19Z</time>
      </trkpt>
      <trkpt lat="43.4234" lon="2.4638">
        <ele>1193.1</ele>
        <time>2021-09-04T11:32:51Z</time>
      </trkpt>
      <trkpt lat="43.4237" lon="2.46374">
        <ele>1199.3</ele>
        <time>2021-09-04T11:33:21Z</time>
      </trkpt>
      <trkpt lat="43.42388" lon="2.46366">
        <ele>1203.5</ele>
        <time>2021-09-04T11:33:51Z</time>
      </trkpt>
      <trkpt lat="43.42406" lon="2.46364">
        <ele>1207.3</ele>
        <time>2021-09-04T11:34:24Z</time>
      </trkpt>
      <trkpt lat="43.42421" lon="2.46324">
        <ele>1211.5</ele>
        <time>2021-09-04T11:34:54Z</time>
      </trkpt>
      <trkpt lat="43.42422" lon="2.46306">
        <ele>1210.8</ele>
        <time>2021-09-04T11:35:24Z</time>
      </trkpt>
      <trkpt lat="43.42398" lon="2.46308">
        <ele>1207.1</ele>
        <time>2021-09-04T11:35:54Z</time>
      </trkpt>
      <trkpt lat="43.4239" lon="2.46307">
        <ele>1205.3</ele>
        <time>2021-09-04T11:36:24Z</time>
      </trkpt>
      <trkpt lat="43.42388" lon="2.46302">
        <ele>1204.7</ele>
        <time>2021-09-04T11:37:45Z</time>
      </trkpt>
      <trkpt lat="43.42389" lon="2.46303">
        <ele>1204.9</ele>
        <time>2021-09-04T11:37:49Z</time>
      </trkpt>
      <trkpt lat="43.42392" lon="2.46299">
        <ele>1205.4</ele>
        <time>2021-09-04T11:38:22Z</time>
      </trkpt>
      <trkpt lat="43.42392" lon="2.46297">
        <ele>1205.4</ele>
        <time>2021-09-04T11:38:52Z</time>
      </trkpt>
      <trkpt lat="43.4239" lon="2.46296">
        <ele>1204.9</ele>
        <time>2021-09-04T11:39:23Z</time>
      </trkpt>
      <trkpt lat="43.42395" lon="2.46298">
        <ele>1206</ele>
        <time>2021-09-04T11:44:22Z</time>
      </trkpt>
      <trkpt lat="43.42392" lon="2.46296">
        <ele>1205.3</ele>
        <time>2021-09-04T11:44:54Z</time>
      </trkpt>
      <trkpt lat="43.42393" lon="2.46298">
        <ele>1205.6</ele>
        <time>2021-09-04T11:47:45Z</time>
      </trkpt>
      <trkpt lat="43.42394" lon="2.46299">
        <ele>1205.9</ele>
        <time>2021-09-04T11:47:50Z</time>
      </trkpt>
      <trkpt lat="43.42393" lon="2.46297">
        <ele>1205.6</ele>
        <time>2021-09-04T11:48:27Z</time>
      </trkpt>
      <trkpt lat="43.42395" lon="2.463">
        <ele>1206.1</ele>
        <time>2021-09-04T12:04:55Z</time>
      </trkpt>
      <trkpt lat="43.42394" lon="2.46298">
        <ele>1205.8</ele>
        <time>2021-09-04T12:05:26Z</time>
      </trkpt>
      <trkpt lat="43.42393" lon="2.46299">
        <ele>1205.7</ele>
        <time>2021-09-04T12:05:57Z</time>
      </trkpt>
      <trkpt lat="43.42395" lon="2.46298">
        <ele>1206</ele>
        <time>2021-09-04T12:06:27Z</time>
      </trkpt>
      <trkpt lat="43.42388" lon="2.46295">
        <ele>1204.4</ele>
        <time>2021-09-04T12:10:58Z</time>
      </trkpt>
      <trkpt lat="43.42391" lon="2.46297">
        <ele>1205.1</ele>
        <time>2021-09-04T12:11:28Z</time>
      </trkpt>
      <trkpt lat="43.42394" lon="2.46302">
        <ele>1206</ele>
        <time>2021-09-04T12:12:58Z</time>
      </trkpt>
      <trkpt lat="43.42393" lon="2.46298">
        <ele>1205.6</ele>
        <time>2021-09-04T12:13:28Z</time>
      </trkpt>
      <trkpt lat="43.42391" lon="2.46302">
        <ele>1205.3</ele>
        <time>2021-09-04T12:14:01Z</time>
      </trkpt>
      <trkpt lat="43.42393" lon="2.46299">
        <ele>1205.7</ele>
        <time>2021-09-04T12:18:57Z</time>
      </trkpt>
      <trkpt lat="43.42388" lon="2.46288">
        <ele>1204.2</ele>
        <time>2021-09-04T12:19:27Z</time>
      </trkpt>
      <trkpt lat="43.4238" lon="2.46261">
        <ele>1201.5</ele>
        <time>2021-09-04T12:19:57Z</time>
      </trkpt>
      <trkpt lat="43.42371" lon="2.46234">
        <ele>1197.3</ele>
        <time>2021-09-04T12:20:27Z</time>
      </trkpt>
      <trkpt lat="43.42364" lon="2.46228">
        <ele>1195.1</ele>
        <time>2021-09-04T12:20:57Z</time>
      </trkpt>
      <trkpt lat="43.42355" lon="2.46226">
        <ele>1193</ele>
        <time>2021-09-04T12:21:27Z</time>
      </trkpt>
      <trkpt lat="43.42337" lon="2.46237">
        <ele>1190.4</ele>
        <time>2021-09-04T12:21:57Z</time>
      </trkpt>
      <trkpt lat="43.42329" lon="2.4626">
        <ele>1190.2</ele>
        <time>2021-09-04T12:22:27Z</time>
      </trkpt>
      <trkpt lat="43.42317" lon="2.4627">
        <ele>1187.4</ele>
        <time>2021-09-04T12:22:57Z</time>
      </trkpt>
      <trkpt lat="43.42295" lon="2.46257">
        <ele>1180.8</ele>
        <time>2021-09-04T12:23:30Z</time>
      </trkpt>
      <trkpt lat="43.42295" lon="2.46257">
        <ele>1180.8</ele>
        <time>2021-09-04T12:23:31Z</time>
      </trkpt>
      <trkpt lat="43.42275" lon="2.46248">
        <ele>1174.7</ele>
        <time>2021-09-04T12:24:01Z</time>
      </trkpt>
      <trkpt lat="43.42241" lon="2.46242">
        <ele>1164.9</ele>
        <time>2021-09-04T12:24:33Z</time>
      </trkpt>
      <trkpt lat="43.42215" lon="2.46254">
        <ele>1158.6</ele>
        <time>2021-09-04T12:25:03Z</time>
      </trkpt>
      <trkpt lat="43.42187" lon="2.46242">
        <ele>1149.9</ele>
        <time>2021-09-04T12:26:01Z</time>
      </trkpt>
      <trkpt lat="43.42177" lon="2.46217">
        <ele>1144.8</ele>
        <time>2021-09-04T12:26:31Z</time>
      </trkpt>
      <trkpt lat="43.42158" lon="2.46207">
        <ele>1139.2</ele>
        <time>2021-09-04T12:27:01Z</time>
      </trkpt>
      <trkpt lat="43.42171" lon="2.4617">
        <ele>1138.6</ele>
        <time>2021-09-04T12:27:31Z</time>
      </trkpt>
      <trkpt lat="43.42193" lon="2.4608">
        <ele>1133.4</ele>
        <time>2021-09-04T12:28:25Z</time>
      </trkpt>
      <trkpt lat="43.42211" lon="2.4603">
        <ele>1132.3</ele>
        <time>2021-09-04T12:28:57Z</time>
      </trkpt>
      <trkpt lat="43.42221" lon="2.45978">
        <ele>1128.9</ele>
        <time>2021-09-04T12:29:27Z</time>
      </trkpt>
      <trkpt lat="43.42221" lon="2.45917">
        <ele>1121.6</ele>
        <time>2021-09-04T12:30:01Z</time>
      </trkpt>
      <trkpt lat="43.42208" lon="2.45865">
        <ele>1110.7</ele>
        <time>2021-09-04T12:30:31Z</time>
      </trkpt>
      <trkpt lat="43.42202" lon="2.45837">
        <ele>1105.5</ele>
        <time>2021-09-04T12:31:01Z</time>
      </trkpt>
      <trkpt lat="43.42197" lon="2.45758">
        <ele>1097</ele>
        <time>2021-09-04T12:31:54Z</time>
      </trkpt>
      <trkpt lat="43.42185" lon="2.45762">
        <ele>1094.3</ele>
        <time>2021-09-04T12:32:24Z</time>
      </trkpt>
      <trkpt lat="43.42168" lon="2.45813">
        <ele>1093.2</ele>
        <time>2021-09-04T12:32:55Z</time>
      </trkpt>
      <trkpt lat="43.42165" lon="2.45879">
        <ele>1097.8</ele>
        <time>2021-09-04T12:33:30Z</time>
      </trkpt>
      <trkpt lat="43.42165" lon="2.45876">
        <ele>1097.5</ele>
        <time>2021-09-04T12:33:30Z</time>
      </trkpt>
      <trkpt lat="43.42165" lon="2.4588">
        <ele>1097.9</ele>
        <time>2021-09-04T12:33:32Z</time>
      </trkpt>
      <trkpt lat="43.42159" lon="2.4593">
        <ele>1101.1</ele>
        <time>2021-09-04T12:34:00Z</time>
      </trkpt>
      <trkpt lat="43.42144" lon="2.45917">
        <ele>1094.4</ele>
        <time>2021-09-04T12:34:30Z</time>
      </trkpt>
      <trkpt lat="43.4215" lon="2.45918">
        <ele>1096.6</ele>
        <time>2021-09-04T12:35:01Z</time>
      </trkpt>
      <trkpt lat="43.42148" lon="2.45862">
        <ele>1089.9</ele>
        <time>2021-09-04T12:35:31Z</time>
      </trkpt>
      <trkpt lat="43.42137" lon="2.45803">
        <ele>1081</ele>
        <time>2021-09-04T12:36:01Z</time>
      </trkpt>
      <trkpt lat="43.42128" lon="2.45742">
        <ele>1074.2</ele>
        <time>2021-09-04T12:36:31Z</time>
      </trkpt>
      <trkpt lat="43.42142" lon="2.45686">
        <ele>1072.8</ele>
        <time>2021-09-04T12:37:01Z</time>
      </trkpt>
      <trkpt lat="43.42149" lon="2.45658">
        <ele>1071.4</ele>
        <time>2021-09-04T12:37:31Z</time>
      </trkpt>
      <trkpt lat="43.42147" lon="2.45652">
        <ele>1069.9</ele>
        <time>2021-09-04T12:38:02Z</time>
      </trkpt>
      <trkpt lat="43.42163" lon="2.45623">
        <ele>1070.1</ele>
        <time>2021-09-04T12:38:57Z</time>
      </trkpt>
      <trkpt lat="43.42178" lon="2.45573">
        <ele>1065</ele>
        <time>2021-09-04T12:39:27Z</time>
      </trkpt>
      <trkpt lat="43.42206" lon="2.45534">
        <ele>1062.3</ele>
        <time>2021-09-04T12:39:57Z</time>
      </trkpt>
      <trkpt lat="43.42237" lon="2.45493">
        <ele>1059</ele>
        <time>2021-09-04T12:40:27Z</time>
      </trkpt>
      <trkpt lat="43.42272" lon="2.45458">
        <ele>1053.9</ele>
        <time>2021-09-04T12:40:57Z</time>
      </trkpt>
      <trkpt lat="43.42314" lon="2.45443">
        <ele>1053.3</ele>
        <time>2021-09-04T12:41:27Z</time>
      </trkpt>
      <trkpt lat="43.42367" lon="2.45425">
        <ele>1054.2</ele>
        <time>2021-09-04T12:41:57Z</time>
      </trkpt>
      <trkpt lat="43.42336" lon="2.45414">
        <ele>1047</ele>
        <time>2021-09-04T12:42:27Z</time>
      </trkpt>
      <trkpt lat="43.42296" lon="2.4541">
        <ele>1043.1</ele>
        <time>2021-09-04T12:42:57Z</time>
      </trkpt>
      <trkpt lat="43.42255" lon="2.45401">
        <ele>1037.7</ele>
        <time>2021-09-04T12:43:27Z</time>
      </trkpt>
      <trkpt lat="43.42245" lon="2.45399">
        <ele>1036</ele>
        <time>2021-09-04T12:43:30Z</time>
      </trkpt>
      <trkpt lat="43.42246" lon="2.45401">
        <ele>1036.6</ele>
        <time>2021-09-04T12:43:33Z</time>
      </trkpt>
      <trkpt lat="43.42216" lon="2.45409">
        <ele>1034.3</ele>
        <time>2021-09-04T12:43:57Z</time>
      </trkpt>
      <trkpt lat="43.42227" lon="2.45385">
        <ele>1029.8</ele>
        <time>2021-09-04T12:45:08Z</time>
      </trkpt>
      <trkpt lat="43.42226" lon="2.45359">
        <ele>1023.3</ele>
        <time>2021-09-04T12:45:38Z</time>
      </trkpt>
      <trkpt lat="43.42217" lon="2.45343">
        <ele>1017.9</ele>
        <time>2021-09-04T12:46:08Z</time>
      </trkpt>
      <trkpt lat="43.42191" lon="2.45351">
        <ele>1015.6</ele>
        <time>2021-09-04T12:46:38Z</time>
      </trkpt>
      <trkpt lat="43.42207" lon="2.45303">
        <ele>1012.7</ele>
        <time>2021-09-04T12:47:39Z</time>
      </trkpt>
      <trkpt lat="43.42226" lon="2.45273">
        <ele>1015.1</ele>
        <time>2021-09-04T12:48:09Z</time>
      </trkpt>
      <trkpt lat="43.422" lon="2.4526">
        <ele>1009.8</ele>
        <time>2021-09-04T12:48:39Z</time>
      </trkpt>
      <trkpt lat="43.42166" lon="2.4526">
        <ele>1003.3</ele>
        <time>2021-09-04T12:49:09Z</time>
      </trkpt>
      <trkpt lat="43.42174" lon="2.45255">
        <ele>1004.6</ele>
        <time>2021-09-04T12:49:45Z</time>
      </trkpt>
      <trkpt lat="43.42103" lon="2.45264">
        <ele>987.5</ele>
        <time>2021-09-04T12:50:33Z</time>
      </trkpt>
      <trkpt lat="43.42072" lon="2.45243">
        <ele>979.6</ele>
        <time>2021-09-04T12:51:03Z</time>
      </trkpt>
      <trkpt lat="43.4206" lon="2.45252">
        <ele>975.6</ele>
        <time>2021-09-04T12:51:41Z</time>
      </trkpt>
      <trkpt lat="43.42026" lon="2.45241">
        <ele>968.5</ele>
        <time>2021-09-04T12:52:33Z</time>
      </trkpt>
      <trkpt lat="43.42" lon="2.45226">
        <ele>963.9</ele>
        <time>2021-09-04T12:53:03Z</time>
      </trkpt>
      <trkpt lat="43.41987" lon="2.45233">
        <ele>960.8</ele>
        <time>2021-09-04T12:53:30Z</time>
      </trkpt>
      <trkpt lat="43.41987" lon="2.45235">
        <ele>960.6</ele>
        <time>2021-09-04T12:53:33Z</time>
      </trkpt>
      <trkpt lat="43.41987" lon="2.45235">
        <ele>960.6</ele>
        <time>2021-09-04T12:53:33Z</time>
      </trkpt>
      <trkpt lat="43.41945" lon="2.45189">
        <ele>954.6</ele>
        <time>2021-09-04T12:54:09Z</time>
      </trkpt>
      <trkpt lat="43.41897" lon="2.45143">
        <ele>946.6</ele>
        <time>2021-09-04T12:55:00Z</time>
      </trkpt>
      <trkpt lat="43.41858" lon="2.45124">
        <ele>939.8</ele>
        <time>2021-09-04T12:55:35Z</time>
      </trkpt>
      <trkpt lat="43.41837" lon="2.45099">
        <ele>932.9</ele>
        <time>2021-09-04T12:56:05Z</time>
      </trkpt>
      <trkpt lat="43.41826" lon="2.45042">
        <ele>929.3</ele>
        <time>2021-09-04T12:56:41Z</time>
      </trkpt>
      <trkpt lat="43.41807" lon="2.44999">
        <ele>926</ele>
        <time>2021-09-04T12:57:34Z</time>
      </trkpt>
      <trkpt lat="43.41778" lon="2.4496">
        <ele>926.5</ele>
        <time>2021-09-04T12:58:05Z</time>
      </trkpt>
      <trkpt lat="43.41748" lon="2.44936">
        <ele>922.5</ele>
        <time>2021-09-04T12:58:35Z</time>
      </trkpt>
      <trkpt lat="43.41715" lon="2.44923">
        <ele>916.3</ele>
        <time>2021-09-04T12:59:09Z</time>
      </trkpt>
      <trkpt lat="43.41662" lon="2.44917">
        <ele>905</ele>
        <time>2021-09-04T13:00:04Z</time>
      </trkpt>
      <trkpt lat="43.41628" lon="2.4492">
        <ele>897.8</ele>
        <time>2021-09-04T13:00:34Z</time>
      </trkpt>
      <trkpt lat="43.41593" lon="2.4492">
        <ele>890.3</ele>
        <time>2021-09-04T13:01:04Z</time>
      </trkpt>
      <trkpt lat="43.41563" lon="2.44915">
        <ele>885.8</ele>
        <time>2021-09-04T13:01:34Z</time>
      </trkpt>
      <trkpt lat="43.41543" lon="2.4489">
        <ele>885.8</ele>
        <time>2021-09-04T13:02:04Z</time>
      </trkpt>
      <trkpt lat="43.41511" lon="2.44863">
        <ele>882.1</ele>
        <time>2021-09-04T13:02:34Z</time>
      </trkpt>
      <trkpt lat="43.4147" lon="2.44842">
        <ele>876.8</ele>
        <time>2021-09-04T13:03:04Z</time>
      </trkpt>
      <trkpt lat="43.41432" lon="2.44834">
        <ele>871.3</ele>
        <time>2021-09-04T13:03:30Z</time>
      </trkpt>
      <trkpt lat="43.41431" lon="2.44835">
        <ele>871.2</ele>
        <time>2021-09-04T13:03:34Z</time>
      </trkpt>
      <trkpt lat="43.41432" lon="2.44835">
        <ele>871.3</ele>
        <time>2021-09-04T13:03:34Z</time>
      </trkpt>
      <trkpt lat="43.41399" lon="2.44823">
        <ele>866.1</ele>
        <time>2021-09-04T13:04:04Z</time>
      </trkpt>
      <trkpt lat="43.41374" lon="2.44784">
        <ele>862.1</ele>
        <time>2021-09-04T13:04:34Z</time>
      </trkpt>
      <trkpt lat="43.4134" lon="2.44756">
        <ele>856.2</ele>
        <time>2021-09-04T13:05:04Z</time>
      </trkpt>
      <trkpt lat="43.41311" lon="2.4473">
        <ele>857.4</ele>
        <time>2021-09-04T13:06:29Z</time>
      </trkpt>
      <trkpt lat="43.41278" lon="2.44746">
        <ele>853.7</ele>
        <time>2021-09-04T13:06:59Z</time>
      </trkpt>
      <trkpt lat="43.41232" lon="2.44752">
        <ele>851.3</ele>
        <time>2021-09-04T13:07:29Z</time>
      </trkpt>
      <trkpt lat="43.41197" lon="2.44756">
        <ele>849.7</ele>
        <time>2021-09-04T13:07:59Z</time>
      </trkpt>
      <trkpt lat="43.41159" lon="2.44754">
        <ele>848</ele>
        <time>2021-09-04T13:08:29Z</time>
      </trkpt>
      <trkpt lat="43.41118" lon="2.44747">
        <ele>845.8</ele>
        <time>2021-09-04T13:08:59Z</time>
      </trkpt>
      <trkpt lat="43.41076" lon="2.44744">
        <ele>843.2</ele>
        <time>2021-09-04T13:09:29Z</time>
      </trkpt>
      <trkpt lat="43.41041" lon="2.44722">
        <ele>846</ele>
        <time>2021-09-04T13:09:59Z</time>
      </trkpt>
      <trkpt lat="43.41001" lon="2.44701">
        <ele>846.9</ele>
        <time>2021-09-04T13:10:29Z</time>
      </trkpt>
      <trkpt lat="43.40968" lon="2.44701">
        <ele>842</ele>
        <time>2021-09-04T13:10:59Z</time>
      </trkpt>
      <trkpt lat="43.40888" lon="2.44639">
        <ele>836.8</ele>
        <time>2021-09-04T13:12:13Z</time>
      </trkpt>
      <trkpt lat="43.40874" lon="2.44583">
        <ele>839.3</ele>
        <time>2021-09-04T13:12:45Z</time>
      </trkpt>
      <trkpt lat="43.40856" lon="2.44559">
        <ele>836.8</ele>
        <time>2021-09-04T13:13:15Z</time>
      </trkpt>
      <trkpt lat="43.40854" lon="2.44568">
        <ele>835.9</ele>
        <time>2021-09-04T13:13:30Z</time>
      </trkpt>
      <trkpt lat="43.40854" lon="2.44569">
        <ele>835.9</ele>
        <time>2021-09-04T13:13:35Z</time>
      </trkpt>
      <trkpt lat="43.40855" lon="2.4457">
        <ele>836.1</ele>
        <time>2021-09-04T13:13:45Z</time>
      </trkpt>
      <trkpt lat="43.40857" lon="2.44568">
        <ele>836.6</ele>
        <time>2021-09-04T13:14:50Z</time>
      </trkpt>
      <trkpt lat="43.40832" lon="2.44582">
        <ele>830.8</ele>
        <time>2021-09-04T13:15:45Z</time>
      </trkpt>
      <trkpt lat="43.40803" lon="2.44589">
        <ele>825.6</ele>
        <time>2021-09-04T13:16:15Z</time>
      </trkpt>
      <trkpt lat="43.40771" lon="2.446">
        <ele>819.9</ele>
        <time>2021-09-04T13:16:45Z</time>
      </trkpt>
      <trkpt lat="43.40744" lon="2.44605">
        <ele>816.1</ele>
        <time>2021-09-04T13:17:15Z</time>
      </trkpt>
      <trkpt lat="43.40709" lon="2.44605">
        <ele>814.1</ele>
        <time>2021-09-04T13:17:48Z</time>
      </trkpt>
      <trkpt lat="43.40666" lon="2.44629">
        <ele>811.4</ele>
        <time>2021-09-04T13:18:18Z</time>
      </trkpt>
      <trkpt lat="43.4063" lon="2.44647">
        <ele>810.1</ele>
        <time>2021-09-04T13:18:48Z</time>
      </trkpt>
      <trkpt lat="43.4059" lon="2.44656">
        <ele>809.1</ele>
        <time>2021-09-04T13:19:18Z</time>
      </trkpt>
      <trkpt lat="43.40545" lon="2.44664">
        <ele>808.1</ele>
        <time>2021-09-04T13:19:50Z</time>
      </trkpt>
      <trkpt lat="43.4048" lon="2.44622">
        <ele>805.1</ele>
        <time>2021-09-04T13:20:45Z</time>
      </trkpt>
      <trkpt lat="43.40448" lon="2.44585">
        <ele>802</ele>
        <time>2021-09-04T13:21:16Z</time>
      </trkpt>
      <trkpt lat="43.40414" lon="2.44549">
        <ele>798</ele>
        <time>2021-09-04T13:21:47Z</time>
      </trkpt>
      <trkpt lat="43.40369" lon="2.44508">
        <ele>794.8</ele>
        <time>2021-09-04T13:22:27Z</time>
      </trkpt>
      <trkpt lat="43.40317" lon="2.44461">
        <ele>789.8</ele>
        <time>2021-09-04T13:23:16Z</time>
      </trkpt>
      <trkpt lat="43.40304" lon="2.44448">
        <ele>788.3</ele>
        <time>2021-09-04T13:23:30Z</time>
      </trkpt>
      <trkpt lat="43.40304" lon="2.44448">
        <ele>788.3</ele>
        <time>2021-09-04T13:23:35Z</time>
      </trkpt>
      <trkpt lat="43.40293" lon="2.44445">
        <ele>787.6</ele>
        <time>2021-09-04T13:23:46Z</time>
      </trkpt>
      <trkpt lat="43.40254" lon="2.44421">
        <ele>784.4</ele>
        <time>2021-09-04T13:24:16Z</time>
      </trkpt>
      <trkpt lat="43.40224" lon="2.4439">
        <ele>782.2</ele>
        <time>2021-09-04T13:24:46Z</time>
      </trkpt>
      <trkpt lat="43.40217" lon="2.4436">
        <ele>781.3</ele>
        <time>2021-09-04T13:25:16Z</time>
      </trkpt>
      <trkpt lat="43.40218" lon="2.44382">
        <ele>781.8</ele>
        <time>2021-09-04T13:26:17Z</time>
      </trkpt>
      <trkpt lat="43.40184" lon="2.44367">
        <ele>780.1</ele>
        <time>2021-09-04T13:26:47Z</time>
      </trkpt>
      <trkpt lat="43.40154" lon="2.44334">
        <ele>778.2</ele>
        <time>2021-09-04T13:27:20Z</time>
      </trkpt>
      <trkpt lat="43.40117" lon="2.4432">
        <ele>775.4</ele>
        <time>2021-09-04T13:27:50Z</time>
      </trkpt>
      <trkpt lat="43.40085" lon="2.44344">
        <ele>774.4</ele>
        <time>2021-09-04T13:28:20Z</time>
      </trkpt>
      <trkpt lat="43.40074" lon="2.44395">
        <ele>774.7</ele>
        <time>2021-09-04T13:28:50Z</time>
      </trkpt>
      <trkpt lat="43.40062" lon="2.44443">
        <ele>774.9</ele>
        <time>2021-09-04T13:29:20Z</time>
      </trkpt>
      <trkpt lat="43.40052" lon="2.44492">
        <ele>775.5</ele>
        <time>2021-09-04T13:29:50Z</time>
      </trkpt>
      <trkpt lat="43.40031" lon="2.44583">
        <ele>774.9</ele>
        <time>2021-09-04T13:30:43Z</time>
      </trkpt>
      <trkpt lat="43.40004" lon="2.44628">
        <ele>774.3</ele>
        <time>2021-09-04T13:31:14Z</time>
      </trkpt>
      <trkpt lat="43.39985" lon="2.44681">
        <ele>774.9</ele>
        <time>2021-09-04T13:31:45Z</time>
      </trkpt>
      <trkpt lat="43.39961" lon="2.44728">
        <ele>775.5</ele>
        <time>2021-09-04T13:32:16Z</time>
      </trkpt>
      <trkpt lat="43.39923" lon="2.44757">
        <ele>774.1</ele>
        <time>2021-09-04T13:32:49Z</time>
      </trkpt>
      <trkpt lat="43.399" lon="2.44794">
        <ele>773</ele>
        <time>2021-09-04T13:33:19Z</time>
      </trkpt>
      <trkpt lat="43.39903" lon="2.44821">
        <ele>772.3</ele>
        <time>2021-09-04T13:33:30Z</time>
      </trkpt>
      <trkpt lat="43.39904" lon="2.44822">
        <ele>772.2</ele>
        <time>2021-09-04T13:33:36Z</time>
      </trkpt>
      <trkpt lat="43.39901" lon="2.44849">
        <ele>772.5</ele>
        <time>2021-09-04T13:33:49Z</time>
      </trkpt>
      <trkpt lat="43.39898" lon="2.44903">
        <ele>774.2</ele>
        <time>2021-09-04T13:34:19Z</time>
      </trkpt>
      <trkpt lat="43.39888" lon="2.44954">
        <ele>777.2</ele>
        <time>2021-09-04T13:34:49Z</time>
      </trkpt>
      <trkpt lat="43.39875" lon="2.44993">
        <ele>780.2</ele>
        <time>2021-09-04T13:35:19Z</time>
      </trkpt>
      <trkpt lat="43.3986" lon="2.45029">
        <ele>782</ele>
        <time>2021-09-04T13:35:49Z</time>
      </trkpt>
      <trkpt lat="43.39835" lon="2.45042">
        <ele>783.4</ele>
        <time>2021-09-04T13:36:19Z</time>
      </trkpt>
      <trkpt lat="43.39829" lon="2.45034">
        <ele>783.9</ele>
        <time>2021-09-04T13:36:49Z</time>
      </trkpt>
      <trkpt lat="43.39827" lon="2.45035">
        <ele>784.1</ele>
        <time>2021-09-04T13:37:19Z</time>
      </trkpt>
      <trkpt lat="43.39823" lon="2.45039">
        <ele>784.3</ele>
        <time>2021-09-04T13:38:47Z</time>
      </trkpt>
      <trkpt lat="43.39838" lon="2.45033">
        <ele>783.3</ele>
        <time>2021-09-04T13:39:19Z</time>
      </trkpt>
      <trkpt lat="43.3983" lon="2.45036">
        <ele>783.8</ele>
        <time>2021-09-04T13:39:56Z</time>
      </trkpt>
      <trkpt lat="43.39818" lon="2.45007">
        <ele>785.5</ele>
        <time>2021-09-04T13:40:39Z</time>
      </trkpt>
      <trkpt lat="43.39796" lon="2.44961">
        <ele>786.8</ele>
        <time>2021-09-04T13:41:11Z</time>
      </trkpt>
      <trkpt lat="43.39778" lon="2.44917">
        <ele>788</ele>
        <time>2021-09-04T13:41:43Z</time>
      </trkpt>
      <trkpt lat="43.39737" lon="2.44895">
        <ele>794.6</ele>
        <time>2021-09-04T13:42:26Z</time>
      </trkpt>
      <trkpt lat="43.39707" lon="2.4487">
        <ele>800.3</ele>
        <time>2021-09-04T13:43:14Z</time>
      </trkpt>
      <trkpt lat="43.39699" lon="2.44862">
        <ele>801.8</ele>
        <time>2021-09-04T13:43:30Z</time>
      </trkpt>
      <trkpt lat="43.397" lon="2.44864">
        <ele>801.6</ele>
        <time>2021-09-04T13:43:36Z</time>
      </trkpt>
      <trkpt lat="43.39698" lon="2.44867">
        <ele>802</ele>
        <time>2021-09-04T13:43:44Z</time>
      </trkpt>
      <trkpt lat="43.39676" lon="2.44829">
        <ele>806.1</ele>
        <time>2021-09-04T13:44:25Z</time>
      </trkpt>
      <trkpt lat="43.39654" lon="2.44808">
        <ele>809.5</ele>
        <time>2021-09-04T13:44:55Z</time>
      </trkpt>
      <trkpt lat="43.39629" lon="2.44774">
        <ele>812.3</ele>
        <time>2021-09-04T13:45:25Z</time>
      </trkpt>
      <trkpt lat="43.39602" lon="2.44749">
        <ele>815</ele>
        <time>2021-09-04T13:45:55Z</time>
      </trkpt>
      <trkpt lat="43.39573" lon="2.44726">
        <ele>818.3</ele>
        <time>2021-09-04T13:46:25Z</time>
      </trkpt>
      <trkpt lat="43.39543" lon="2.44696">
        <ele>822</ele>
        <time>2021-09-04T13:46:55Z</time>
      </trkpt>
      <trkpt lat="43.3952" lon="2.44668">
        <ele>824.3</ele>
        <time>2021-09-04T13:47:25Z</time>
      </trkpt>
      <trkpt lat="43.39495" lon="2.44636">
        <ele>825.8</ele>
        <time>2021-09-04T13:47:55Z</time>
      </trkpt>
      <trkpt lat="43.39467" lon="2.44604">
        <ele>828.6</ele>
        <time>2021-09-04T13:48:25Z</time>
      </trkpt>
      <trkpt lat="43.39438" lon="2.44578">
        <ele>831.6</ele>
        <time>2021-09-04T13:48:55Z</time>
      </trkpt>
      <trkpt lat="43.39415" lon="2.44557">
        <ele>832.8</ele>
        <time>2021-09-04T13:49:25Z</time>
      </trkpt>
      <trkpt lat="43.39412" lon="2.44549">
        <ele>831.8</ele>
        <time>2021-09-04T13:49:55Z</time>
      </trkpt>
      <trkpt lat="43.39403" lon="2.44545">
        <ele>832.2</ele>
        <time>2021-09-04T13:50:25Z</time>
      </trkpt>
      <trkpt lat="43.3938" lon="2.44535">
        <ele>832.9</ele>
        <time>2021-09-04T13:50:55Z</time>
      </trkpt>
      <trkpt lat="43.39372" lon="2.44527">
        <ele>832.2</ele>
        <time>2021-09-04T13:51:25Z</time>
      </trkpt>
      <trkpt lat="43.39347" lon="2.44528">
        <ele>835</ele>
        <time>2021-09-04T13:51:55Z</time>
      </trkpt>
      <trkpt lat="43.39316" lon="2.44531">
        <ele>839.5</ele>
        <time>2021-09-04T13:52:25Z</time>
      </trkpt>
      <trkpt lat="43.39262" lon="2.44538">
        <ele>848</ele>
        <time>2021-09-04T13:53:45Z</time>
      </trkpt>
      <trkpt lat="43.39244" lon="2.44516">
        <ele>848.1</ele>
      </trkpt>
      <trkpt lat="43.39237" lon="2.44502">
        <ele>848</ele>
        <time>2021-09-04T13:53:52Z</time>
      </trkpt>
      <trkpt lat="43.3922" lon="2.44464">
        <ele>849</ele>
        <time>2021-09-04T13:54:22Z</time>
      </trkpt>
      <trkpt lat="43.39205" lon="2.44431">
        <ele>849.7</ele>
        <time>2021-09-04T13:54:52Z</time>
      </trkpt>
      <trkpt lat="43.39179" lon="2.44404">
        <ele>852</ele>
        <time>2021-09-04T13:55:22Z</time>
      </trkpt>
      <trkpt lat="43.39151" lon="2.44379">
        <ele>852.5</ele>
        <time>2021-09-04T13:55:52Z</time>
      </trkpt>
      <trkpt lat="43.39118" lon="2.44364">
        <ele>853.2</ele>
        <time>2021-09-04T13:56:22Z</time>
      </trkpt>
      <trkpt lat="43.39086" lon="2.44372">
        <ele>857.3</ele>
        <time>2021-09-04T13:56:52Z</time>
      </trkpt>
      <trkpt lat="43.39057" lon="2.4439">
        <ele>860</ele>
        <time>2021-09-04T13:57:22Z</time>
      </trkpt>
      <trkpt lat="43.39021" lon="2.44409">
        <ele>862.3</ele>
        <time>2021-09-04T13:57:52Z</time>
      </trkpt>
      <trkpt lat="43.39" lon="2.44442">
        <ele>865.7</ele>
        <time>2021-09-04T13:58:22Z</time>
      </trkpt>
      <trkpt lat="43.38975" lon="2.44474">
        <ele>869.5</ele>
        <time>2021-09-04T13:58:52Z</time>
      </trkpt>
      <trkpt lat="43.38963" lon="2.44478">
        <ele>870</ele>
        <time>2021-09-04T13:59:22Z</time>
      </trkpt>
      <trkpt lat="43.38928" lon="2.44465">
        <ele>869.3</ele>
        <time>2021-09-04T13:59:52Z</time>
      </trkpt>
      <trkpt lat="43.38888" lon="2.44445">
        <ele>869</ele>
        <time>2021-09-04T14:00:22Z</time>
      </trkpt>
      <trkpt lat="43.38842" lon="2.44437">
        <ele>869.9</ele>
      </trkpt>
      <trkpt lat="43.38812" lon="2.44457">
        <ele>870.8</ele>
        <time>2021-09-04T14:01:33Z</time>
      </trkpt>
      <trkpt lat="43.38787" lon="2.44493">
        <ele>871</ele>
        <time>2021-09-04T14:02:03Z</time>
      </trkpt>
      <trkpt lat="43.38767" lon="2.44536">
        <ele>869.3</ele>
        <time>2021-09-04T14:02:33Z</time>
      </trkpt>
      <trkpt lat="43.38744" lon="2.44569">
        <ele>866.1</ele>
        <time>2021-09-04T14:03:03Z</time>
      </trkpt>
      <trkpt lat="43.3873" lon="2.44592">
        <ele>862.2</ele>
      </trkpt>
      <trkpt lat="43.38739" lon="2.44612">
        <ele>862.6</ele>
        <time>2021-09-04T14:03:33Z</time>
      </trkpt>
      <trkpt lat="43.38757" lon="2.44624">
        <ele>864.4</ele>
        <time>2021-09-04T14:03:45Z</time>
      </trkpt>
      <trkpt lat="43.38758" lon="2.44625">
        <ele>864.4</ele>
        <time>2021-09-04T14:03:52Z</time>
      </trkpt>
      <trkpt lat="43.38769" lon="2.44636">
        <ele>864.9</ele>
        <time>2021-09-04T14:04:03Z</time>
      </trkpt>
      <trkpt lat="43.38788" lon="2.44662">
        <ele>865.7</ele>
        <time>2021-09-04T14:04:33Z</time>
      </trkpt>
      <trkpt lat="43.38781" lon="2.44689">
        <ele>866.2</ele>
        <time>2021-09-04T14:05:03Z</time>
      </trkpt>
      <trkpt lat="43.38757" lon="2.44705">
        <ele>864.5</ele>
        <time>2021-09-04T14:05:33Z</time>
      </trkpt>
      <trkpt lat="43.38731" lon="2.447">
        <ele>861.7</ele>
        <time>2021-09-04T14:06:03Z</time>
      </trkpt>
      <trkpt lat="43.38698" lon="2.44684">
        <ele>856.6</ele>
        <time>2021-09-04T14:06:33Z</time>
      </trkpt>
      <trkpt lat="43.38673" lon="2.44676">
        <ele>852.6</ele>
        <time>2021-09-04T14:07:03Z</time>
      </trkpt>
      <trkpt lat="43.38627" lon="2.44654">
        <ele>847.2</ele>
        <time>2021-09-04T14:08:16Z</time>
      </trkpt>
      <trkpt lat="43.38608" lon="2.44622">
        <ele>840.9</ele>
        <time>2021-09-04T14:08:48Z</time>
      </trkpt>
      <trkpt lat="43.38587" lon="2.44601">
        <ele>833.5</ele>
        <time>2021-09-04T14:09:18Z</time>
      </trkpt>
      <trkpt lat="43.38561" lon="2.44578">
        <ele>827.6</ele>
        <time>2021-09-04T14:09:48Z</time>
      </trkpt>
      <trkpt lat="43.38546" lon="2.44574">
        <ele>826.2</ele>
        <time>2021-09-04T14:10:18Z</time>
      </trkpt>
      <trkpt lat="43.38498" lon="2.44573">
        <ele>821.8</ele>
        <time>2021-09-04T14:10:54Z</time>
      </trkpt>
      <trkpt lat="43.38458" lon="2.4456">
        <ele>819.8</ele>
        <time>2021-09-04T14:11:46Z</time>
      </trkpt>
      <trkpt lat="43.38442" lon="2.44552">
        <ele>817.9</ele>
        <time>2021-09-04T14:12:17Z</time>
      </trkpt>
      <trkpt lat="43.38425" lon="2.44537">
        <ele>813.6</ele>
        <time>2021-09-04T14:12:47Z</time>
      </trkpt>
      <trkpt lat="43.38411" lon="2.44527">
        <ele>811.8</ele>
        <time>2021-09-04T14:13:17Z</time>
      </trkpt>
      <trkpt lat="43.38395" lon="2.44515">
        <ele>812.4</ele>
        <time>2021-09-04T14:13:45Z</time>
      </trkpt>
      <trkpt lat="43.384" lon="2.44519">
        <ele>812.2</ele>
        <time>2021-09-04T14:13:47Z</time>
      </trkpt>
      <trkpt lat="43.38396" lon="2.44515">
        <ele>812.1</ele>
        <time>2021-09-04T14:13:53Z</time>
      </trkpt>
      <trkpt lat="43.38377" lon="2.4449">
        <ele>810.6</ele>
        <time>2021-09-04T14:14:17Z</time>
      </trkpt>
      <trkpt lat="43.38357" lon="2.4447">
        <ele>809.7</ele>
        <time>2021-09-04T14:14:47Z</time>
      </trkpt>
      <trkpt lat="43.38337" lon="2.44454">
        <ele>808.7</ele>
        <time>2021-09-04T14:15:17Z</time>
      </trkpt>
      <trkpt lat="43.38318" lon="2.44432">
        <ele>804.3</ele>
        <time>2021-09-04T14:15:47Z</time>
      </trkpt>
      <trkpt lat="43.38299" lon="2.44403">
        <ele>798.2</ele>
        <time>2021-09-04T14:16:17Z</time>
      </trkpt>
      <trkpt lat="43.38283" lon="2.44386">
        <ele>795.6</ele>
        <time>2021-09-04T14:16:47Z</time>
      </trkpt>
      <trkpt lat="43.38269" lon="2.4437">
        <ele>792.6</ele>
        <time>2021-09-04T14:17:17Z</time>
      </trkpt>
      <trkpt lat="43.38262" lon="2.44367">
        <ele>792.8</ele>
        <time>2021-09-04T14:17:47Z</time>
      </trkpt>
      <trkpt lat="43.38241" lon="2.44352">
        <ele>789.1</ele>
        <time>2021-09-04T14:18:42Z</time>
      </trkpt>
      <trkpt lat="43.38225" lon="2.44348">
        <ele>787</ele>
        <time>2021-09-04T14:19:13Z</time>
      </trkpt>
      <trkpt lat="43.38204" lon="2.44351">
        <ele>787.2</ele>
        <time>2021-09-04T14:19:45Z</time>
      </trkpt>
      <trkpt lat="43.38194" lon="2.44353">
        <ele>787.5</ele>
        <time>2021-09-04T14:20:15Z</time>
      </trkpt>
      <trkpt lat="43.38175" lon="2.44357">
        <ele>788.1</ele>
        <time>2021-09-04T14:20:46Z</time>
      </trkpt>
      <trkpt lat="43.3816" lon="2.4436">
        <ele>787.9</ele>
        <time>2021-09-04T14:21:16Z</time>
      </trkpt>
      <trkpt lat="43.38149" lon="2.44361">
        <ele>786.5</ele>
        <time>2021-09-04T14:21:46Z</time>
      </trkpt>
      <trkpt lat="43.38119" lon="2.44368">
        <ele>784.3</ele>
        <time>2021-09-04T14:22:16Z</time>
      </trkpt>
      <trkpt lat="43.38085" lon="2.44377">
        <ele>781.9</ele>
        <time>2021-09-04T14:22:46Z</time>
      </trkpt>
      <trkpt lat="43.38049" lon="2.44376">
        <ele>779.2</ele>
        <time>2021-09-04T14:23:16Z</time>
      </trkpt>
      <trkpt lat="43.38014" lon="2.44371">
        <ele>776.2</ele>
        <time>2021-09-04T14:23:45Z</time>
      </trkpt>
      <trkpt lat="43.3802" lon="2.44371">
        <ele>776.5</ele>
        <time>2021-09-04T14:23:46Z</time>
      </trkpt>
      <trkpt lat="43.38014" lon="2.44372">
        <ele>776.4</ele>
        <time>2021-09-04T14:23:54Z</time>
      </trkpt>
      <trkpt lat="43.37998" lon="2.44366">
        <ele>775</ele>
        <time>2021-09-04T14:24:16Z</time>
      </trkpt>
      <trkpt lat="43.37995" lon="2.44368">
        <ele>775.2</ele>
        <time>2021-09-04T14:24:46Z</time>
      </trkpt>
      <trkpt lat="43.37994" lon="2.4437">
        <ele>775.4</ele>
        <time>2021-09-04T14:25:17Z</time>
      </trkpt>
      <trkpt lat="43.37995" lon="2.44369">
        <ele>775.3</ele>
        <time>2021-09-04T14:25:50Z</time>
      </trkpt>
      <trkpt lat="43.37994" lon="2.44371">
        <ele>775.5</ele>
        <time>2021-09-04T14:29:17Z</time>
      </trkpt>
      <trkpt lat="43.37995" lon="2.44371">
        <ele>775.5</ele>
        <time>2021-09-04T14:29:51Z</time>
      </trkpt>
      <trkpt lat="43.37994" lon="2.44369">
        <ele>775.3</ele>
        <time>2021-09-04T14:30:21Z</time>
      </trkpt>
      <trkpt lat="43.37993" lon="2.44369">
        <ele>775.3</ele>
        <time>2021-09-04T14:31:16Z</time>
      </trkpt>
      <trkpt lat="43.37995" lon="2.4437">
        <ele>775.4</ele>
        <time>2021-09-04T14:31:46Z</time>
      </trkpt>
      <trkpt lat="43.37991" lon="2.44368">
        <ele>775.3</ele>
        <time>2021-09-04T14:32:21Z</time>
      </trkpt>
      <trkpt lat="43.37993" lon="2.44369">
        <ele>775.3</ele>
        <time>2021-09-04T14:32:51Z</time>
      </trkpt>
      <trkpt lat="43.37996" lon="2.44366">
        <ele>775</ele>
        <time>2021-09-04T14:33:22Z</time>
      </trkpt>
      <trkpt lat="43.37993" lon="2.44369">
        <ele>775.3</ele>
        <time>2021-09-04T14:33:45Z</time>
      </trkpt>
      <trkpt lat="43.37993" lon="2.44369">
        <ele>775.3</ele>
        <time>2021-09-04T14:33:52Z</time>
      </trkpt>
      <trkpt lat="43.37993" lon="2.4437">
        <ele>775.4</ele>
        <time>2021-09-04T14:33:54Z</time>
      </trkpt>
      <trkpt lat="43.37996" lon="2.44366">
        <ele>775</ele>
        <time>2021-09-04T14:34:51Z</time>
      </trkpt>
      <trkpt lat="43.37994" lon="2.44367">
        <ele>775.1</ele>
        <time>2021-09-04T14:35:21Z</time>
      </trkpt>
      <trkpt lat="43.37999" lon="2.44361">
        <ele>774.4</ele>
        <time>2021-09-04T14:36:48Z</time>
      </trkpt>
      <trkpt lat="43.37993" lon="2.44368">
        <ele>775.3</ele>
        <time>2021-09-04T14:37:18Z</time>
      </trkpt>
      <trkpt lat="43.37957" lon="2.44369">
        <ele>775.7</ele>
        <time>2021-09-04T14:37:48Z</time>
      </trkpt>
      <trkpt lat="43.37941" lon="2.44364">
        <ele>776.5</ele>
        <time>2021-09-04T14:38:18Z</time>
      </trkpt>
      <trkpt lat="43.37926" lon="2.44348">
        <ele>780.3</ele>
        <time>2021-09-04T14:38:48Z</time>
      </trkpt>
      <trkpt lat="43.3791" lon="2.44341">
        <ele>781.8</ele>
        <time>2021-09-04T14:39:18Z</time>
      </trkpt>
      <trkpt lat="43.37895" lon="2.44334">
        <ele>781.2</ele>
        <time>2021-09-04T14:39:48Z</time>
      </trkpt>
      <trkpt lat="43.3786" lon="2.44307">
        <ele>780</ele>
        <time>2021-09-04T14:40:19Z</time>
      </trkpt>
      <trkpt lat="43.3783" lon="2.44293">
        <ele>783.1</ele>
        <time>2021-09-04T14:40:49Z</time>
      </trkpt>
      <trkpt lat="43.37786" lon="2.44274">
        <ele>784.2</ele>
        <time>2021-09-04T14:41:19Z</time>
      </trkpt>
      <trkpt lat="43.37743" lon="2.44258">
        <ele>786.6</ele>
        <time>2021-09-04T14:41:49Z</time>
      </trkpt>
      <trkpt lat="43.37707" lon="2.44253">
        <ele>787.8</ele>
        <time>2021-09-04T14:42:19Z</time>
      </trkpt>
      <trkpt lat="43.37669" lon="2.44249">
        <ele>788.4</ele>
        <time>2021-09-04T14:42:49Z</time>
      </trkpt>
      <trkpt lat="43.37628" lon="2.44245">
        <ele>791.1</ele>
        <time>2021-09-04T14:43:19Z</time>
      </trkpt>
      <trkpt lat="43.37586" lon="2.44255">
        <ele>789.4</ele>
        <time>2021-09-04T14:43:45Z</time>
      </trkpt>
      <trkpt lat="43.37592" lon="2.44256">
        <ele>788.8</ele>
        <time>2021-09-04T14:43:49Z</time>
      </trkpt>
      <trkpt lat="43.37586" lon="2.44256">
        <ele>789.1</ele>
        <time>2021-09-04T14:43:55Z</time>
      </trkpt>
      <trkpt lat="43.37558" lon="2.44256">
        <ele>786.4</ele>
        <time>2021-09-04T14:44:19Z</time>
      </trkpt>
      <trkpt lat="43.37548" lon="2.44255">
        <ele>785.7</ele>
        <time>2021-09-04T14:44:49Z</time>
      </trkpt>
      <trkpt lat="43.37525" lon="2.44246">
        <ele>785.8</ele>
        <time>2021-09-04T14:45:19Z</time>
      </trkpt>
      <trkpt lat="43.37486" lon="2.44227">
        <ele>784.8</ele>
        <time>2021-09-04T14:45:49Z</time>
      </trkpt>
      <trkpt lat="43.37446" lon="2.44204">
        <ele>782.3</ele>
        <time>2021-09-04T14:46:19Z</time>
      </trkpt>
      <trkpt lat="43.37411" lon="2.44183">
        <ele>782.1</ele>
        <time>2021-09-04T14:46:49Z</time>
      </trkpt>
      <trkpt lat="43.37376" lon="2.44174">
        <ele>779</ele>
        <time>2021-09-04T14:47:19Z</time>
      </trkpt>
      <trkpt lat="43.37336" lon="2.44161">
        <ele>776.3</ele>
        <time>2021-09-04T14:47:49Z</time>
      </trkpt>
      <trkpt lat="43.37297" lon="2.44164">
        <ele>774.3</ele>
        <time>2021-09-04T14:48:19Z</time>
      </trkpt>
      <trkpt lat="43.37259" lon="2.44172">
        <ele>770.8</ele>
        <time>2021-09-04T14:48:49Z</time>
      </trkpt>
      <trkpt lat="43.3722" lon="2.44181">
        <ele>763.4</ele>
        <time>2021-09-04T14:49:19Z</time>
      </trkpt>
      <trkpt lat="43.37181" lon="2.44172">
        <ele>762.6</ele>
        <time>2021-09-04T14:49:49Z</time>
      </trkpt>
      <trkpt lat="43.3715" lon="2.44163">
        <ele>761.8</ele>
        <time>2021-09-04T14:50:19Z</time>
      </trkpt>
      <trkpt lat="43.371" lon="2.44165">
        <ele>756</ele>
      </trkpt>
      <trkpt lat="43.3705" lon="2.44192">
        <ele>748.3</ele>
        <time>2021-09-04T14:51:40Z</time>
      </trkpt>
      <trkpt lat="43.37019" lon="2.44203">
        <ele>747.9</ele>
        <time>2021-09-04T14:52:15Z</time>
      </trkpt>
      <trkpt lat="43.36981" lon="2.44228">
        <ele>748</ele>
        <time>2021-09-04T14:52:45Z</time>
      </trkpt>
      <trkpt lat="43.36945" lon="2.44255">
        <ele>747.3</ele>
        <time>2021-09-04T14:53:15Z</time>
      </trkpt>
      <trkpt lat="43.36899" lon="2.44268">
        <ele>745</ele>
        <time>2021-09-04T14:53:45Z</time>
      </trkpt>
      <trkpt lat="43.369" lon="2.4427">
        <ele>744.6</ele>
        <time>2021-09-04T14:53:55Z</time>
      </trkpt>
      <trkpt lat="43.36874" lon="2.44256">
        <ele>745</ele>
        <time>2021-09-04T14:54:15Z</time>
      </trkpt>
      <trkpt lat="43.36839" lon="2.44231">
        <ele>746</ele>
        <time>2021-09-04T14:54:45Z</time>
      </trkpt>
      <trkpt lat="43.36801" lon="2.44208">
        <ele>743.4</ele>
        <time>2021-09-04T14:55:15Z</time>
      </trkpt>
      <trkpt lat="43.36771" lon="2.44177">
        <ele>743.7</ele>
        <time>2021-09-04T14:55:45Z</time>
      </trkpt>
      <trkpt lat="43.36751" lon="2.44136">
        <ele>743.3</ele>
        <time>2021-09-04T14:56:15Z</time>
      </trkpt>
      <trkpt lat="43.36722" lon="2.44098">
        <ele>742.1</ele>
        <time>2021-09-04T14:56:45Z</time>
      </trkpt>
      <trkpt lat="43.36705" lon="2.44091">
        <ele>741</ele>
      </trkpt>
      <trkpt lat="43.36689" lon="2.44096">
        <ele>739.4</ele>
        <time>2021-09-04T14:57:15Z</time>
      </trkpt>
      <trkpt lat="43.36658" lon="2.4413">
        <ele>736.2</ele>
        <time>2021-09-04T14:57:45Z</time>
      </trkpt>
      <trkpt lat="43.36597" lon="2.44169">
        <ele>733.9</ele>
      </trkpt>
      <trkpt lat="43.36573" lon="2.44215">
        <ele>726.6</ele>
        <time>2021-09-04T14:59:07Z</time>
      </trkpt>
      <trkpt lat="43.36547" lon="2.44253">
        <ele>721.6</ele>
        <time>2021-09-04T14:59:37Z</time>
      </trkpt>
      <trkpt lat="43.36521" lon="2.44294">
        <ele>718</ele>
        <time>2021-09-04T15:00:07Z</time>
      </trkpt>
      <trkpt lat="43.3651" lon="2.44345">
        <ele>714.9</ele>
        <time>2021-09-04T15:00:37Z</time>
      </trkpt>
      <trkpt lat="43.36488" lon="2.44397">
        <ele>711.9</ele>
        <time>2021-09-04T15:01:11Z</time>
      </trkpt>
      <trkpt lat="43.36472" lon="2.44428">
        <ele>708.7</ele>
        <time>2021-09-04T15:01:41Z</time>
      </trkpt>
      <trkpt lat="43.36469" lon="2.44425">
        <ele>708.7</ele>
        <time>2021-09-04T15:02:11Z</time>
      </trkpt>
      <trkpt lat="43.36454" lon="2.44442">
        <ele>706.8</ele>
        <time>2021-09-04T15:02:41Z</time>
      </trkpt>
      <trkpt lat="43.36421" lon="2.44447">
        <ele>705.8</ele>
        <time>2021-09-04T15:03:13Z</time>
      </trkpt>
      <trkpt lat="43.36393" lon="2.44471">
        <ele>705.4</ele>
        <time>2021-09-04T15:03:43Z</time>
      </trkpt>
      <trkpt lat="43.36379" lon="2.4448">
        <ele>705.7</ele>
        <time>2021-09-04T15:03:45Z</time>
      </trkpt>
      <trkpt lat="43.36379" lon="2.44482">
        <ele>705.8</ele>
        <time>2021-09-04T15:03:55Z</time>
      </trkpt>
      <trkpt lat="43.36326" lon="2.44482">
        <ele>704.3</ele>
        <time>2021-09-04T15:04:35Z</time>
      </trkpt>
      <trkpt lat="43.36283" lon="2.44472">
        <ele>698.9</ele>
        <time>2021-09-04T15:05:07Z</time>
      </trkpt>
      <trkpt lat="43.36242" lon="2.44497">
        <ele>699.9</ele>
        <time>2021-09-04T15:05:39Z</time>
      </trkpt>
      <trkpt lat="43.36202" lon="2.44513">
        <ele>696.7</ele>
        <time>2021-09-04T15:06:09Z</time>
      </trkpt>
      <trkpt lat="43.36168" lon="2.44518">
        <ele>694.2</ele>
        <time>2021-09-04T15:06:39Z</time>
      </trkpt>
      <trkpt lat="43.36151" lon="2.44524">
        <ele>691.9</ele>
        <time>2021-09-04T15:07:10Z</time>
      </trkpt>
      <trkpt lat="43.36115" lon="2.44518">
        <ele>687.8</ele>
        <time>2021-09-04T15:07:40Z</time>
      </trkpt>
      <trkpt lat="43.36098" lon="2.44507">
        <ele>686.4</ele>
        <time>2021-09-04T15:08:10Z</time>
      </trkpt>
      <trkpt lat="43.36094" lon="2.44495">
        <ele>685</ele>
        <time>2021-09-04T15:08:40Z</time>
      </trkpt>
      <trkpt lat="43.361" lon="2.44526">
        <ele>685.5</ele>
        <time>2021-09-04T15:09:10Z</time>
      </trkpt>
      <trkpt lat="43.36107" lon="2.44539">
        <ele>685.6</ele>
        <time>2021-09-04T15:09:40Z</time>
      </trkpt>
      <trkpt lat="43.36093" lon="2.44498">
        <ele>685.7</ele>
        <time>2021-09-04T15:10:10Z</time>
      </trkpt>
      <trkpt lat="43.36081" lon="2.44491">
        <ele>682.2</ele>
        <time>2021-09-04T15:10:40Z</time>
      </trkpt>
      <trkpt lat="43.36067" lon="2.44473">
        <ele>673.9</ele>
        <time>2021-09-04T15:11:10Z</time>
      </trkpt>
      <trkpt lat="43.36057" lon="2.44461">
        <ele>668.9</ele>
        <time>2021-09-04T15:11:40Z</time>
      </trkpt>
      <trkpt lat="43.3604" lon="2.44453">
        <ele>663.4</ele>
        <time>2021-09-04T15:12:10Z</time>
      </trkpt>
      <trkpt lat="43.36024" lon="2.44452">
        <ele>659.7</ele>
        <time>2021-09-04T15:12:40Z</time>
      </trkpt>
      <trkpt lat="43.3601" lon="2.44452">
        <ele>656.6</ele>
        <time>2021-09-04T15:13:11Z</time>
      </trkpt>
      <trkpt lat="43.35996" lon="2.44461">
        <ele>654.2</ele>
        <time>2021-09-04T15:13:41Z</time>
      </trkpt>
      <trkpt lat="43.35981" lon="2.44459">
        <ele>650</ele>
        <time>2021-09-04T15:13:45Z</time>
      </trkpt>
      <trkpt lat="43.35981" lon="2.44459">
        <ele>650</ele>
        <time>2021-09-04T15:13:56Z</time>
      </trkpt>
      <trkpt lat="43.35966" lon="2.44461">
        <ele>646.2</ele>
        <time>2021-09-04T15:14:11Z</time>
      </trkpt>
      <trkpt lat="43.35933" lon="2.44462">
        <ele>637.5</ele>
        <time>2021-09-04T15:14:41Z</time>
      </trkpt>
      <trkpt lat="43.35901" lon="2.44475">
        <ele>630.6</ele>
        <time>2021-09-04T15:15:11Z</time>
      </trkpt>
      <trkpt lat="43.35888" lon="2.44507">
        <ele>627.5</ele>
        <time>2021-09-04T15:15:41Z</time>
      </trkpt>
      <trkpt lat="43.35871" lon="2.44536">
        <ele>617</ele>
        <time>2021-09-04T15:16:11Z</time>
      </trkpt>
      <trkpt lat="43.35855" lon="2.44534">
        <ele>613.9</ele>
        <time>2021-09-04T15:16:41Z</time>
      </trkpt>
      <trkpt lat="43.35833" lon="2.44535">
        <ele>608.6</ele>
        <time>2021-09-04T15:17:11Z</time>
      </trkpt>
      <trkpt lat="43.35811" lon="2.44515">
        <ele>604.2</ele>
        <time>2021-09-04T15:17:41Z</time>
      </trkpt>
      <trkpt lat="43.35791" lon="2.44499">
        <ele>598.1</ele>
        <time>2021-09-04T15:18:11Z</time>
      </trkpt>
      <trkpt lat="43.35764" lon="2.44491">
        <ele>585.1</ele>
        <time>2021-09-04T15:18:41Z</time>
      </trkpt>
      <trkpt lat="43.35748" lon="2.44514">
        <ele>576.5</ele>
        <time>2021-09-04T15:19:11Z</time>
      </trkpt>
      <trkpt lat="43.35731" lon="2.4454">
        <ele>567.4</ele>
        <time>2021-09-04T15:19:41Z</time>
      </trkpt>
      <trkpt lat="43.35709" lon="2.4456">
        <ele>559.3</ele>
        <time>2021-09-04T15:20:11Z</time>
      </trkpt>
      <trkpt lat="43.35682" lon="2.44567">
        <ele>551.6</ele>
        <time>2021-09-04T15:20:41Z</time>
      </trkpt>
      <trkpt lat="43.35621" lon="2.44611">
        <ele>534.4</ele>
        <time>2021-09-04T15:21:58Z</time>
      </trkpt>
      <trkpt lat="43.35605" lon="2.44609">
        <ele>531.3</ele>
        <time>2021-09-04T15:22:28Z</time>
      </trkpt>
      <trkpt lat="43.35573" lon="2.44607">
        <ele>525.1</ele>
        <time>2021-09-04T15:23:00Z</time>
      </trkpt>
      <trkpt lat="43.3555" lon="2.44591">
        <ele>521.2</ele>
        <time>2021-09-04T15:23:31Z</time>
      </trkpt>
      <trkpt lat="43.3553" lon="2.44609">
        <ele>517.9</ele>
        <time>2021-09-04T15:23:45Z</time>
      </trkpt>
      <trkpt lat="43.35531" lon="2.4461">
        <ele>518.1</ele>
        <time>2021-09-04T15:23:57Z</time>
      </trkpt>
      <trkpt lat="43.35528" lon="2.44612">
        <ele>517.6</ele>
        <time>2021-09-04T15:24:01Z</time>
      </trkpt>
      <trkpt lat="43.35497" lon="2.44638">
        <ele>515.2</ele>
        <time>2021-09-04T15:24:32Z</time>
      </trkpt>
      <trkpt lat="43.35479" lon="2.44658">
        <ele>518.1</ele>
      </trkpt>
      <trkpt lat="43.35491" lon="2.44669">
        <ele>517.4</ele>
        <time>2021-09-04T15:25:02Z</time>
      </trkpt>
      <trkpt lat="43.35502" lon="2.44672">
        <ele>516.4</ele>
        <time>2021-09-04T15:25:32Z</time>
      </trkpt>
      <trkpt lat="43.35529" lon="2.44699">
        <ele>514.1</ele>
        <time>2021-09-04T15:26:02Z</time>
      </trkpt>
      <trkpt lat="43.35565" lon="2.44735">
        <ele>509.4</ele>
        <time>2021-09-04T15:26:32Z</time>
      </trkpt>
      <trkpt lat="43.35607" lon="2.44759">
        <ele>505.7</ele>
        <time>2021-09-04T15:27:02Z</time>
      </trkpt>
      <trkpt lat="43.35624" lon="2.44768">
        <ele>504.2</ele>
        <time>2021-09-04T15:27:32Z</time>
      </trkpt>
      <trkpt lat="43.35648" lon="2.4478">
        <ele>502.6</ele>
        <time>2021-09-04T15:28:02Z</time>
      </trkpt>
      <trkpt lat="43.35671" lon="2.448">
        <ele>499.6</ele>
        <time>2021-09-04T15:28:32Z</time>
      </trkpt>
      <trkpt lat="43.35712" lon="2.44797">
        <ele>504.3</ele>
        <time>2021-09-04T15:29:02Z</time>
      </trkpt>
      <trkpt lat="43.35749" lon="2.44806">
        <ele>506.1</ele>
        <time>2021-09-04T15:29:32Z</time>
      </trkpt>
      <trkpt lat="43.35779" lon="2.44803">
        <ele>515.7</ele>
        <time>2021-09-04T15:30:02Z</time>
      </trkpt>
      <trkpt lat="43.35773" lon="2.44854">
        <ele>510.7</ele>
        <time>2021-09-04T15:30:32Z</time>
      </trkpt>
      <trkpt lat="43.35756" lon="2.44903">
        <ele>508.5</ele>
        <time>2021-09-04T15:31:02Z</time>
      </trkpt>
      <trkpt lat="43.35739" lon="2.44951">
        <ele>508.3</ele>
        <time>2021-09-04T15:31:32Z</time>
      </trkpt>
      <trkpt lat="43.35723" lon="2.45024">
        <ele>512.5</ele>
        <time>2021-09-04T15:32:31Z</time>
      </trkpt>
      <trkpt lat="43.35718" lon="2.45075">
        <ele>516</ele>
        <time>2021-09-04T15:33:02Z</time>
      </trkpt>
      <trkpt lat="43.35737" lon="2.45118">
        <ele>517.4</ele>
        <time>2021-09-04T15:33:32Z</time>
      </trkpt>
      <trkpt lat="43.35753" lon="2.45164">
        <ele>515.4</ele>
        <time>2021-09-04T15:34:00Z</time>
      </trkpt>
      <trkpt lat="43.35752" lon="2.45163">
        <ele>515.1</ele>
        <time>2021-09-04T15:34:00Z</time>
      </trkpt>
      <trkpt lat="43.35754" lon="2.45168">
        <ele>515.3</ele>
        <time>2021-09-04T15:34:02Z</time>
      </trkpt>
      <trkpt lat="43.35758" lon="2.45219">
        <ele>509</ele>
        <time>2021-09-04T15:34:32Z</time>
      </trkpt>
      <trkpt lat="43.35753" lon="2.45254">
        <ele>501.9</ele>
        <time>2021-09-04T15:35:02Z</time>
      </trkpt>
      <trkpt lat="43.35748" lon="2.4528">
        <ele>495.4</ele>
        <time>2021-09-04T15:35:32Z</time>
      </trkpt>
      <trkpt lat="43.35772" lon="2.45317">
        <ele>492.6</ele>
        <time>2021-09-04T15:36:03Z</time>
      </trkpt>
      <trkpt lat="43.3579" lon="2.45364">
        <ele>486.9</ele>
        <time>2021-09-04T15:36:35Z</time>
      </trkpt>
      <trkpt lat="43.358" lon="2.45408">
        <ele>480.1</ele>
        <time>2021-09-04T15:37:05Z</time>
      </trkpt>
      <trkpt lat="43.35811" lon="2.45442">
        <ele>475.4</ele>
        <time>2021-09-04T15:37:35Z</time>
      </trkpt>
      <trkpt lat="43.35817" lon="2.45459">
        <ele>473</ele>
        <time>2021-09-04T15:38:05Z</time>
      </trkpt>
      <trkpt lat="43.35831" lon="2.45499">
        <ele>466.8</ele>
        <time>2021-09-04T15:38:35Z</time>
      </trkpt>
      <trkpt lat="43.3585" lon="2.45546">
        <ele>460.7</ele>
        <time>2021-09-04T15:39:07Z</time>
      </trkpt>
      <trkpt lat="43.35864" lon="2.45592">
        <ele>453</ele>
        <time>2021-09-04T15:39:37Z</time>
      </trkpt>
      <trkpt lat="43.35899" lon="2.45673">
        <ele>436.7</ele>
        <time>2021-09-04T15:40:33Z</time>
      </trkpt>
      <trkpt lat="43.35927" lon="2.45676">
        <ele>441.8</ele>
        <time>2021-09-04T15:41:03Z</time>
      </trkpt>
      <trkpt lat="43.35948" lon="2.4569">
        <ele>438.5</ele>
        <time>2021-09-04T15:41:33Z</time>
      </trkpt>
      <trkpt lat="43.35953" lon="2.45693">
        <ele>437.8</ele>
        <time>2021-09-04T15:42:30Z</time>
      </trkpt>
      <trkpt lat="43.35982" lon="2.45724">
        <ele>426.4</ele>
        <time>2021-09-04T15:43:00Z</time>
      </trkpt>
      <trkpt lat="43.36019" lon="2.45728">
        <ele>425.5</ele>
        <time>2021-09-04T15:43:33Z</time>
      </trkpt>
      <trkpt lat="43.36056" lon="2.45729">
        <ele>424.9</ele>
        <time>2021-09-04T15:44:00Z</time>
      </trkpt>
      <trkpt lat="43.36057" lon="2.4573">
        <ele>424.4</ele>
        <time>2021-09-04T15:44:01Z</time>
      </trkpt>
      <trkpt lat="43.3606" lon="2.45731">
        <ele>423.9</ele>
        <time>2021-09-04T15:44:03Z</time>
      </trkpt>
      <trkpt lat="43.36095" lon="2.45756">
        <ele>410.9</ele>
        <time>2021-09-04T15:44:33Z</time>
      </trkpt>
      <trkpt lat="43.36134" lon="2.45772">
        <ele>403</ele>
        <time>2021-09-04T15:45:05Z</time>
      </trkpt>
      <trkpt lat="43.36166" lon="2.45786">
        <ele>396.6</ele>
        <time>2021-09-04T15:45:35Z</time>
      </trkpt>
      <trkpt lat="43.362" lon="2.45788">
        <ele>387.8</ele>
        <time>2021-09-04T15:46:05Z</time>
      </trkpt>
      <trkpt lat="43.36229" lon="2.45771">
        <ele>386.2</ele>
        <time>2021-09-04T15:46:35Z</time>
      </trkpt>
      <trkpt lat="43.36256" lon="2.45743">
        <ele>385</ele>
        <time>2021-09-04T15:47:09Z</time>
      </trkpt>
      <trkpt lat="43.36245" lon="2.45772">
        <ele>381.6</ele>
        <time>2021-09-04T15:47:39Z</time>
      </trkpt>
      <trkpt lat="43.36247" lon="2.45809">
        <ele>371</ele>
        <time>2021-09-04T15:48:09Z</time>
      </trkpt>
      <trkpt lat="43.36269" lon="2.45783">
        <ele>368.7</ele>
        <time>2021-09-04T15:48:39Z</time>
      </trkpt>
      <trkpt lat="43.36294" lon="2.45754">
        <ele>363.5</ele>
        <time>2021-09-04T15:49:09Z</time>
      </trkpt>
      <trkpt lat="43.36279" lon="2.45848">
        <ele>349.6</ele>
        <time>2021-09-04T15:50:09Z</time>
      </trkpt>
      <trkpt lat="43.36272" lon="2.459">
        <ele>340.5</ele>
        <time>2021-09-04T15:50:39Z</time>
      </trkpt>
      <trkpt lat="43.36269" lon="2.45938">
        <ele>332.4</ele>
        <time>2021-09-04T15:51:33Z</time>
      </trkpt>
      <trkpt lat="43.36266" lon="2.45958">
        <ele>328</ele>
        <time>2021-09-04T15:52:03Z</time>
      </trkpt>
      <trkpt lat="43.36255" lon="2.45984">
        <ele>321.6</ele>
        <time>2021-09-04T15:52:33Z</time>
      </trkpt>
      <trkpt lat="43.36231" lon="2.45989">
        <ele>318.1</ele>
        <time>2021-09-04T15:53:04Z</time>
      </trkpt>
      <trkpt lat="43.36257" lon="2.46043">
        <ele>313.9</ele>
        <time>2021-09-04T15:53:45Z</time>
      </trkpt>
      <trkpt lat="43.36276" lon="2.46053">
        <ele>314.6</ele>
        <time>2021-09-04T15:54:00Z</time>
      </trkpt>
      <trkpt lat="43.36277" lon="2.46055">
        <ele>314.5</ele>
        <time>2021-09-04T15:54:01Z</time>
      </trkpt>
      <trkpt lat="43.36288" lon="2.46038">
        <ele>316.8</ele>
        <time>2021-09-04T15:54:41Z</time>
      </trkpt>
      <trkpt lat="43.36285" lon="2.46035">
        <ele>316.8</ele>
        <time>2021-09-04T15:56:24Z</time>
      </trkpt>
      <trkpt lat="43.36288" lon="2.4604">
        <ele>316.6</ele>
        <time>2021-09-04T16:03:49Z</time>
      </trkpt>
      <trkpt lat="43.36284" lon="2.46055">
        <ele>315.1</ele>
        <time>2021-09-04T16:04:00Z</time>
      </trkpt>
      <trkpt lat="43.36293" lon="2.46073">
        <ele>314.4</ele>
      </trkpt>
      <trkpt lat="43.36296" lon="2.46085">
        <ele>314</ele>
        <time>2021-09-04T16:04:02Z</time>
      </trkpt>
      <trkpt lat="43.36282" lon="2.46097">
        <ele>313.6</ele>
        <time>2021-09-04T16:04:19Z</time>
      </trkpt>
      <trkpt lat="43.36211" lon="2.46081">
        <ele>306.9</ele>
        <time>2021-09-04T16:04:49Z</time>
      </trkpt>
    </trkseg>
  </trk>
</gpx>